UAL839 KLAX-YSSY
Flight info
| Callsign | UAL839 |
|---|---|
| Flight time | N/A |
| Altitude | 34000 |
| Route | SUMMR2 FICKY DCT 2748N12503W 2415N12732W 2150N12913W 1811N13209W 1529N13438W/N0502F360 1124N13845W 0950N14029W 0612N14504W 0457N14637W 0139N15026W 0152S15419W 0450S15810W/N0495F380 0500S15823W 0734S16150W 1053S16622W 1308S16931W 1631S17408W 1754S17549W 1910S17716W 2146S17939E/N0488F400 2243S17835E 2500S17619E 2653S17422E 2809S17306E 2941S17120E 3125S16857E 3300S16547E 3347S16300E 3401S16206E DCT AKALU N774 MARLN MARLN5 |
| Aircraft | B789/H-SDE1E2E3FGHIJ2J3J4J5M1RWXY/LB1D1 |
Departure
| Time | 2026-04-20 02:12 |
|---|---|
| Airport | Los Angeles International Airport (KLAX) |
Arrival
| Time | N/A |
|---|---|
| Airport | Sydney Kingsford Smith International Airport (YSSY) |
| Time | Latitude | Longitude | Altitude | Speed | Heading |
|---|---|---|---|---|---|
| 2026-04-20 01:38 | 33.94093 | -118.39878 | 131 ft | 0 kts | 306° |
| 2026-04-20 01:58 | 33.94087 | -118.39869 | 131 ft | 2 kts | 307° |
| 2026-04-20 01:58 | 33.94077 | -118.39854 | 125 ft | 2 kts | 313° |
| 2026-04-20 01:58 | 33.94065 | -118.39840 | 128 ft | 2 kts | 321° |
| 2026-04-20 01:58 | 33.94051 | -118.39830 | 125 ft | 2 kts | 334° |
| 2026-04-20 01:59 | 33.94035 | -118.39824 | 125 ft | 2 kts | 351° |
| 2026-04-20 01:59 | 33.94019 | -118.39823 | 125 ft | 2 kts | 2° |
| 2026-04-20 01:59 | 33.94003 | -118.39821 | 125 ft | 2 kts | 327° |
| 2026-04-20 01:59 | 33.93992 | -118.39806 | 125 ft | 2 kts | 295° |
| 2026-04-20 02:00 | 33.93987 | -118.39787 | 131 ft | 2 kts | 282° |
| 2026-04-20 02:00 | 33.93986 | -118.39774 | 130 ft | 2 kts | 275° |
| 2026-04-20 02:00 | 33.93985 | -118.39761 | 136 ft | 1 kts | 266° |
| 2026-04-20 02:00 | 33.93985 | -118.39759 | 130 ft | 0 kts | 265° |
| 2026-04-20 02:07 | 33.93985 | -118.39767 | 133 ft | 3 kts | 265° |
| 2026-04-20 02:07 | 33.93974 | -118.39790 | 125 ft | 3 kts | 227° |
| 2026-04-20 02:07 | 33.93930 | -118.39790 | 128 ft | 11 kts | 143° |
| 2026-04-20 02:07 | 33.93912 | -118.39662 | 126 ft | 22 kts | 82° |
| 2026-04-20 02:08 | 33.93939 | -118.39418 | 127 ft | 36 kts | 83° |
| 2026-04-20 02:08 | 33.93973 | -118.39067 | 131 ft | 45 kts | 82° |
| 2026-04-20 02:08 | 33.94010 | -118.38705 | 127 ft | 42 kts | 83° |
| 2026-04-20 02:08 | 33.94044 | -118.38392 | 127 ft | 20 kts | 83° |
| 2026-04-20 02:09 | 33.94044 | -118.38373 | 129 ft | 0 kts | 100° |
| 2026-04-20 02:09 | 33.94043 | -118.38371 | 129 ft | 2 kts | 102° |
| 2026-04-20 02:09 | 33.94042 | -118.38367 | 129 ft | 0 kts | 104° |
| 2026-04-20 02:10 | 33.94042 | -118.38366 | 129 ft | 2 kts | 108° |
| 2026-04-20 02:10 | 33.93996 | -118.38323 | 126 ft | 16 kts | 164° |
| 2026-04-20 02:10 | 33.93947 | -118.38366 | 127 ft | 8 kts | 257° |
| 2026-04-20 02:11 | 33.93943 | -118.38419 | 127 ft | 5 kts | 264° |
| 2026-04-20 02:11 | 33.93942 | -118.38433 | 127 ft | 1 kts | 264° |
| 2026-04-20 02:11 | 33.93925 | -118.38610 | 128 ft | 50 kts | 263° |
| 2026-04-20 02:11 | 33.93857 | -118.39280 | 130 ft | 109 kts | 263° |
| 2026-04-20 02:12 | 33.93740 | -118.40406 | 133 ft | 160 kts | 263° |
| 2026-04-20 02:12 | 33.93609 | -118.41809 | 477 ft | 169 kts | 266° |
| 2026-04-20 02:12 | 33.93513 | -118.43289 | 897 ft | 187 kts | 265° |
| 2026-04-20 02:12 | 33.93419 | -118.44898 | 1515 ft | 198 kts | 266° |
| 2026-04-20 02:13 | 33.93257 | -118.46574 | 2200 ft | 206 kts | 260° |
| 2026-04-20 02:13 | 33.93008 | -118.48359 | 2675 ft | 229 kts | 259° |
| 2026-04-20 02:13 | 33.92783 | -118.50360 | 2998 ft | 254 kts | 261° |
| 2026-04-20 02:13 | 33.92611 | -118.52551 | 3465 ft | 266 kts | 263° |
| 2026-04-20 02:14 | 33.92449 | -118.54786 | 4192 ft | 270 kts | 262° |
| 2026-04-20 02:14 | 33.92258 | -118.57073 | 4843 ft | 280 kts | 262° |
| 2026-04-20 02:14 | 33.92054 | -118.59457 | 4993 ft | 288 kts | 262° |
| 2026-04-20 02:14 | 33.91857 | -118.61839 | 4982 ft | 282 kts | 262° |
| 2026-04-20 02:15 | 33.91807 | -118.64182 | 4990 ft | 280 kts | 271° |
| 2026-04-20 02:15 | 33.91813 | -118.66524 | 4997 ft | 279 kts | 265° |
| 2026-04-20 02:15 | 33.91750 | -118.68864 | 4993 ft | 280 kts | 266° |
| 2026-04-20 02:15 | 33.91735 | -118.71200 | 4989 ft | 280 kts | 268° |
| 2026-04-20 02:16 | 33.91740 | -118.73561 | 5674 ft | 278 kts | 268° |
| 2026-04-20 02:16 | 33.91734 | -118.75900 | 6524 ft | 281 kts | 267° |
| 2026-04-20 02:16 | 33.91719 | -118.78262 | 7320 ft | 283 kts | 267° |
| 2026-04-20 02:16 | 33.91707 | -118.80644 | 8095 ft | 286 kts | 267° |
| 2026-04-20 02:17 | 33.91698 | -118.83046 | 8894 ft | 288 kts | 268° |
| 2026-04-20 02:17 | 33.91830 | -118.85469 | 9632 ft | 291 kts | 269° |
| 2026-04-20 02:17 | 33.91858 | -118.87917 | 10264 ft | 298 kts | 267° |
| 2026-04-20 02:17 | 33.91878 | -118.90525 | 10334 ft | 324 kts | 265° |
| 2026-04-20 02:18 | 33.91314 | -118.93191 | 10499 ft | 337 kts | 236° |
| 2026-04-20 02:18 | 33.89789 | -118.95280 | 11229 ft | 334 kts | 217° |
| 2026-04-20 02:18 | 33.87904 | -118.96940 | 11903 ft | 337 kts | 213° |
| 2026-04-20 02:18 | 33.85976 | -118.98564 | 12611 ft | 340 kts | 216° |
| 2026-04-20 02:19 | 33.84147 | -119.00406 | 13309 ft | 344 kts | 221° |
| 2026-04-20 02:19 | 33.82417 | -119.02424 | 13968 ft | 349 kts | 222° |
| 2026-04-20 02:19 | 33.80640 | -119.04422 | 14585 ft | 351 kts | 220° |
| 2026-04-20 02:19 | 33.78795 | -119.06372 | 15196 ft | 354 kts | 220° |
| 2026-04-20 02:20 | 33.76962 | -119.08315 | 15803 ft | 358 kts | 221° |
| 2026-04-20 02:20 | 33.75113 | -119.10325 | 16397 ft | 361 kts | 221° |
| 2026-04-20 02:20 | 33.73243 | -119.12362 | 16989 ft | 364 kts | 221° |
| 2026-04-20 02:20 | 33.71350 | -119.14402 | 17585 ft | 368 kts | 221° |
| 2026-04-20 02:21 | 33.67505 | -119.18537 | 18667 ft | 374 kts | 221° |
| 2026-04-20 02:21 | 33.65560 | -119.20635 | 19146 ft | 377 kts | 222° |
| 2026-04-20 02:21 | 33.63598 | -119.22747 | 19631 ft | 381 kts | 222° |
| 2026-04-20 02:22 | 33.61618 | -119.24876 | 20105 ft | 384 kts | 222° |
| 2026-04-20 02:22 | 33.59620 | -119.27022 | 20559 ft | 387 kts | 223° |
| 2026-04-20 02:22 | 33.57606 | -119.29186 | 21023 ft | 390 kts | 223° |
| 2026-04-20 02:22 | 33.55574 | -119.31368 | 21466 ft | 393 kts | 223° |
| 2026-04-20 02:23 | 33.53526 | -119.33564 | 21898 ft | 397 kts | 223° |
| 2026-04-20 02:23 | 33.51461 | -119.35777 | 22337 ft | 400 kts | 223° |
| 2026-04-20 02:23 | 33.49379 | -119.38007 | 22759 ft | 403 kts | 223° |
| 2026-04-20 02:23 | 33.47277 | -119.40258 | 23177 ft | 406 kts | 223° |
| 2026-04-20 02:24 | 33.45162 | -119.42521 | 23588 ft | 409 kts | 223° |
| 2026-04-20 02:24 | 33.43038 | -119.44791 | 23937 ft | 411 kts | 223° |
| 2026-04-20 02:24 | 33.40898 | -119.47077 | 24283 ft | 413 kts | 224° |
| 2026-04-20 02:24 | 33.38748 | -119.49372 | 24634 ft | 415 kts | 224° |
| 2026-04-20 02:25 | 33.36588 | -119.51676 | 24970 ft | 417 kts | 224° |
| 2026-04-20 02:25 | 33.34420 | -119.53988 | 25300 ft | 419 kts | 224° |
| 2026-04-20 02:25 | 33.32242 | -119.56308 | 25710 ft | 419 kts | 224° |
| 2026-04-20 02:25 | 33.30088 | -119.58601 | 25993 ft | 421 kts | 224° |
| 2026-04-20 02:26 | 33.27895 | -119.60935 | 26317 ft | 423 kts | 224° |
| 2026-04-20 02:26 | 33.25689 | -119.63279 | 26626 ft | 425 kts | 224° |
| 2026-04-20 02:26 | 33.23470 | -119.65636 | 26925 ft | 427 kts | 224° |
| 2026-04-20 02:26 | 33.21245 | -119.67998 | 27222 ft | 429 kts | 224° |
| 2026-04-20 02:27 | 33.19005 | -119.70374 | 27506 ft | 432 kts | 224° |
| 2026-04-20 02:27 | 33.16757 | -119.72758 | 27778 ft | 434 kts | 224° |
| 2026-04-20 02:27 | 33.14493 | -119.75156 | 28063 ft | 436 kts | 225° |
| 2026-04-20 02:27 | 33.12221 | -119.77560 | 28351 ft | 437 kts | 225° |
| 2026-04-20 02:28 | 33.09942 | -119.79971 | 28631 ft | 439 kts | 225° |
| 2026-04-20 02:28 | 33.07650 | -119.82394 | 28897 ft | 441 kts | 225° |
| 2026-04-20 02:28 | 33.05351 | -119.84822 | 29213 ft | 442 kts | 225° |
| 2026-04-20 02:28 | 33.03043 | -119.87258 | 29462 ft | 444 kts | 225° |
| 2026-04-20 02:29 | 33.00730 | -119.89699 | 29720 ft | 445 kts | 225° |
| 2026-04-20 02:29 | 32.98401 | -119.92153 | 29969 ft | 447 kts | 225° |
| 2026-04-20 02:29 | 32.96068 | -119.94609 | 30188 ft | 449 kts | 225° |
| 2026-04-20 02:29 | 32.93757 | -119.97042 | 30400 ft | 450 kts | 225° |
| 2026-04-20 02:30 | 32.91404 | -119.99516 | 30611 ft | 451 kts | 225° |
| 2026-04-20 02:30 | 32.89047 | -120.01993 | 30820 ft | 453 kts | 225° |
| 2026-04-20 02:30 | 32.86683 | -120.04475 | 31006 ft | 454 kts | 225° |
| 2026-04-20 02:30 | 32.84312 | -120.06963 | 31215 ft | 455 kts | 225° |
| 2026-04-20 02:31 | 32.81938 | -120.09452 | 31410 ft | 456 kts | 225° |
| 2026-04-20 02:31 | 32.79549 | -120.11955 | 31602 ft | 457 kts | 225° |
| 2026-04-20 02:31 | 32.77159 | -120.14457 | 31849 ft | 457 kts | 225° |
| 2026-04-20 02:31 | 32.74770 | -120.16957 | 32017 ft | 458 kts | 225° |
| 2026-04-20 02:32 | 32.72372 | -120.19464 | 32203 ft | 459 kts | 225° |
| 2026-04-20 02:32 | 32.70002 | -120.21939 | 32368 ft | 460 kts | 225° |
| 2026-04-20 02:32 | 32.67594 | -120.24453 | 32537 ft | 461 kts | 225° |
| 2026-04-20 02:32 | 32.65179 | -120.26971 | 32695 ft | 463 kts | 225° |
| 2026-04-20 02:33 | 32.62759 | -120.29494 | 32868 ft | 464 kts | 225° |
| 2026-04-20 02:33 | 32.60333 | -120.32021 | 33028 ft | 465 kts | 225° |
| 2026-04-20 02:33 | 32.57898 | -120.34555 | 33182 ft | 466 kts | 225° |
| 2026-04-20 02:33 | 32.55460 | -120.37090 | 33326 ft | 467 kts | 225° |
| 2026-04-20 02:34 | 32.53018 | -120.39628 | 33487 ft | 467 kts | 225° |
| 2026-04-20 02:34 | 32.50575 | -120.42164 | 33709 ft | 466 kts | 225° |
| 2026-04-20 02:34 | 32.48133 | -120.44698 | 33836 ft | 467 kts | 225° |
| 2026-04-20 02:34 | 32.45687 | -120.47235 | 33975 ft | 468 kts | 225° |
| 2026-04-20 02:35 | 32.43229 | -120.49782 | 34016 ft | 471 kts | 225° |
| 2026-04-20 02:35 | 32.38293 | -120.54887 | 34015 ft | 470 kts | 225° |
| 2026-04-20 02:36 | 32.33378 | -120.59966 | 34004 ft | 468 kts | 225° |
| 2026-04-20 02:36 | 32.28463 | -120.65038 | 34014 ft | 468 kts | 225° |
| 2026-04-20 02:37 | 32.23554 | -120.70095 | 34020 ft | 468 kts | 225° |
| 2026-04-20 02:37 | 32.18640 | -120.75151 | 34011 ft | 469 kts | 225° |
| 2026-04-20 02:38 | 32.13720 | -120.80204 | 34011 ft | 469 kts | 225° |
| 2026-04-20 02:38 | 32.08793 | -120.85257 | 34008 ft | 469 kts | 225° |
| 2026-04-20 02:39 | 32.03890 | -120.90278 | 34007 ft | 469 kts | 225° |
| 2026-04-20 02:39 | 31.98955 | -120.95325 | 34021 ft | 469 kts | 225° |
| 2026-04-20 02:40 | 31.94028 | -121.00354 | 34019 ft | 468 kts | 225° |
| 2026-04-20 02:40 | 31.89114 | -121.05365 | 34014 ft | 467 kts | 225° |
| 2026-04-20 02:41 | 31.84203 | -121.10366 | 34023 ft | 468 kts | 225° |
| 2026-04-20 02:41 | 31.79275 | -121.15375 | 34027 ft | 469 kts | 225° |
| 2026-04-20 02:42 | 31.74337 | -121.20387 | 34030 ft | 470 kts | 225° |
| 2026-04-20 02:42 | 31.69385 | -121.25406 | 34028 ft | 469 kts | 225° |
| 2026-04-20 02:43 | 31.64458 | -121.30393 | 34016 ft | 466 kts | 225° |
| 2026-04-20 02:43 | 31.59539 | -121.35365 | 34009 ft | 466 kts | 225° |
| 2026-04-20 02:44 | 31.54623 | -121.40328 | 34023 ft | 467 kts | 225° |
| 2026-04-20 02:44 | 31.49731 | -121.45363 | 34026 ft | 468 kts | 225° |
| 2026-04-20 02:45 | 31.44817 | -121.50379 | 34020 ft | 468 kts | 225° |
| 2026-04-20 02:45 | 31.39952 | -121.55352 | 34023 ft | 466 kts | 225° |
| 2026-04-20 02:46 | 31.35066 | -121.60336 | 34032 ft | 465 kts | 225° |
| 2026-04-20 02:46 | 31.30169 | -121.65322 | 34024 ft | 467 kts | 225° |
| 2026-04-20 02:47 | 31.25262 | -121.70313 | 34012 ft | 468 kts | 225° |
| 2026-04-20 02:47 | 31.20346 | -121.75305 | 34030 ft | 468 kts | 225° |
| 2026-04-20 02:48 | 31.15421 | -121.80300 | 34024 ft | 469 kts | 225° |
| 2026-04-20 02:48 | 31.11329 | -121.84443 | 34024 ft | 467 kts | 225° |
| 2026-04-20 02:49 | 31.06429 | -121.89401 | 34023 ft | 466 kts | 225° |
| 2026-04-20 02:49 | 31.01525 | -121.94353 | 34028 ft | 466 kts | 225° |
| 2026-04-20 02:50 | 30.96620 | -121.99300 | 34030 ft | 466 kts | 225° |
| 2026-04-20 02:50 | 30.91710 | -122.04246 | 34018 ft | 466 kts | 225° |
| 2026-04-20 02:51 | 30.86787 | -122.09198 | 34036 ft | 468 kts | 225° |
| 2026-04-20 02:51 | 30.81856 | -122.14149 | 34040 ft | 468 kts | 225° |
| 2026-04-20 02:52 | 30.76927 | -122.19093 | 34042 ft | 468 kts | 225° |
| 2026-04-20 02:52 | 30.72005 | -122.24022 | 34043 ft | 468 kts | 225° |
| 2026-04-20 02:53 | 30.67070 | -122.28958 | 34040 ft | 467 kts | 225° |
| 2026-04-20 02:53 | 30.62139 | -122.33882 | 34042 ft | 467 kts | 225° |
| 2026-04-20 02:54 | 30.57208 | -122.38801 | 34044 ft | 467 kts | 225° |
| 2026-04-20 02:54 | 30.52296 | -122.43694 | 34048 ft | 469 kts | 224° |
| 2026-04-20 02:55 | 30.47334 | -122.48628 | 34051 ft | 469 kts | 224° |
| 2026-04-20 02:55 | 30.42377 | -122.53551 | 34046 ft | 469 kts | 224° |
| 2026-04-20 02:56 | 30.37416 | -122.58471 | 34056 ft | 469 kts | 224° |
| 2026-04-20 02:56 | 30.32451 | -122.63389 | 34057 ft | 469 kts | 224° |
| 2026-04-20 02:57 | 30.27500 | -122.68285 | 34045 ft | 468 kts | 224° |
| 2026-04-20 02:57 | 30.22551 | -122.73173 | 34031 ft | 467 kts | 224° |
| 2026-04-20 02:58 | 30.17615 | -122.78042 | 34036 ft | 467 kts | 224° |
| 2026-04-20 02:58 | 30.12662 | -122.82921 | 34045 ft | 468 kts | 224° |
| 2026-04-20 02:59 | 30.07692 | -122.87810 | 34046 ft | 470 kts | 224° |
| 2026-04-20 02:59 | 30.02718 | -122.92694 | 34043 ft | 467 kts | 224° |
| 2026-04-20 03:00 | 29.97776 | -122.97544 | 34042 ft | 466 kts | 224° |
| 2026-04-20 03:00 | 29.92834 | -123.02385 | 34029 ft | 466 kts | 224° |
| 2026-04-20 03:01 | 29.87930 | -123.07183 | 34044 ft | 465 kts | 224° |
| 2026-04-20 03:01 | 29.82966 | -123.12032 | 34047 ft | 465 kts | 224° |
| 2026-04-20 03:02 | 29.78031 | -123.16847 | 34043 ft | 464 kts | 224° |
| 2026-04-20 03:02 | 29.73113 | -123.21639 | 34042 ft | 463 kts | 224° |
| 2026-04-20 03:03 | 29.68228 | -123.26393 | 34046 ft | 463 kts | 224° |
| 2026-04-20 03:03 | 29.63305 | -123.31177 | 34046 ft | 463 kts | 224° |
| 2026-04-20 03:04 | 29.58381 | -123.35954 | 34050 ft | 461 kts | 224° |
| 2026-04-20 03:04 | 29.53507 | -123.40680 | 34046 ft | 458 kts | 225° |
| 2026-04-20 03:05 | 29.48632 | -123.45399 | 34049 ft | 459 kts | 225° |
| 2026-04-20 03:05 | 29.43739 | -123.50129 | 34054 ft | 460 kts | 224° |
| 2026-04-20 03:06 | 29.38836 | -123.54863 | 34052 ft | 461 kts | 224° |
| 2026-04-20 03:06 | 29.33932 | -123.59591 | 34053 ft | 460 kts | 224° |
| 2026-04-20 03:07 | 29.29041 | -123.64300 | 34050 ft | 459 kts | 224° |
| 2026-04-20 03:07 | 29.24163 | -123.68990 | 34043 ft | 456 kts | 225° |
| 2026-04-20 03:08 | 29.19339 | -123.73624 | 34049 ft | 450 kts | 226° |
| 2026-04-20 03:08 | 29.14525 | -123.78245 | 34049 ft | 453 kts | 226° |
| 2026-04-20 03:09 | 29.09685 | -123.82880 | 34058 ft | 454 kts | 226° |
| 2026-04-20 03:09 | 29.04877 | -123.87480 | 34057 ft | 453 kts | 226° |
| 2026-04-20 03:10 | 29.00051 | -123.92091 | 34055 ft | 451 kts | 226° |
| 2026-04-20 03:10 | 28.95238 | -123.96686 | 34050 ft | 450 kts | 226° |
| 2026-04-20 03:11 | 28.90447 | -124.01249 | 34045 ft | 445 kts | 227° |
| 2026-04-20 03:11 | 28.85707 | -124.05767 | 34040 ft | 444 kts | 227° |
| 2026-04-20 03:12 | 28.80948 | -124.10290 | 34046 ft | 446 kts | 227° |
| 2026-04-20 03:12 | 28.76176 | -124.14822 | 34053 ft | 447 kts | 227° |
| 2026-04-20 03:13 | 28.71393 | -124.19358 | 34055 ft | 446 kts | 227° |
| 2026-04-20 03:13 | 28.66637 | -124.23863 | 34084 ft | 442 kts | 227° |
| 2026-04-20 03:14 | 28.61914 | -124.28334 | 34065 ft | 442 kts | 227° |
| 2026-04-20 03:14 | 28.57179 | -124.32809 | 34058 ft | 443 kts | 227° |
| 2026-04-20 03:15 | 28.52432 | -124.37289 | 34062 ft | 444 kts | 227° |
| 2026-04-20 03:15 | 28.47673 | -124.41776 | 34068 ft | 444 kts | 227° |
| 2026-04-20 03:16 | 28.42925 | -124.46246 | 34073 ft | 443 kts | 227° |
| 2026-04-20 03:16 | 28.38200 | -124.50689 | 34063 ft | 439 kts | 227° |
| 2026-04-20 03:17 | 28.33504 | -124.55103 | 34060 ft | 439 kts | 227° |
| 2026-04-20 03:17 | 28.28822 | -124.59496 | 34070 ft | 440 kts | 227° |
| 2026-04-20 03:18 | 28.24111 | -124.63910 | 34059 ft | 439 kts | 227° |
| 2026-04-20 03:18 | 28.19414 | -124.68306 | 34060 ft | 437 kts | 227° |
| 2026-04-20 03:19 | 28.14726 | -124.72690 | 34057 ft | 437 kts | 227° |
| 2026-04-20 03:19 | 28.10038 | -124.77067 | 34048 ft | 437 kts | 226° |
| 2026-04-20 03:20 | 28.05355 | -124.81436 | 34051 ft | 436 kts | 226° |
| 2026-04-20 03:20 | 28.00678 | -124.85794 | 34046 ft | 435 kts | 226° |
| 2026-04-20 03:21 | 27.95997 | -124.90151 | 34047 ft | 436 kts | 226° |
| 2026-04-20 03:21 | 27.91298 | -124.94518 | 34055 ft | 437 kts | 226° |
| 2026-04-20 03:22 | 27.86587 | -124.98892 | 34056 ft | 438 kts | 226° |
| 2026-04-20 03:22 | 27.81885 | -125.03251 | 34060 ft | 436 kts | 225° |
| 2026-04-20 03:23 | 27.76913 | -125.07233 | 34057 ft | 441 kts | 219° |
| 2026-04-20 03:23 | 27.71778 | -125.10965 | 34063 ft | 442 kts | 219° |
| 2026-04-20 03:24 | 27.66594 | -125.14715 | 34067 ft | 443 kts | 219° |
| 2026-04-20 03:24 | 27.61409 | -125.18467 | 34066 ft | 443 kts | 219° |
| 2026-04-20 03:25 | 27.56235 | -125.22204 | 34049 ft | 440 kts | 219° |
| 2026-04-20 03:25 | 27.51090 | -125.25919 | 34055 ft | 439 kts | 219° |
| 2026-04-20 03:26 | 27.45940 | -125.29633 | 34054 ft | 440 kts | 218° |
| 2026-04-20 03:26 | 27.40770 | -125.33356 | 34057 ft | 441 kts | 218° |
| 2026-04-20 03:27 | 27.35594 | -125.37078 | 34063 ft | 441 kts | 218° |
| 2026-04-20 03:27 | 27.30456 | -125.40769 | 34061 ft | 440 kts | 218° |
| 2026-04-20 03:28 | 27.25296 | -125.44473 | 34054 ft | 441 kts | 218° |
| 2026-04-20 03:28 | 27.17530 | -125.50039 | 34056 ft | 442 kts | 218° |
| 2026-04-20 03:29 | 27.12345 | -125.53749 | 34060 ft | 441 kts | 218° |
| 2026-04-20 03:29 | 27.07167 | -125.57451 | 34060 ft | 441 kts | 218° |
| 2026-04-20 03:30 | 27.02024 | -125.61124 | 34059 ft | 440 kts | 218° |
| 2026-04-20 03:30 | 26.96853 | -125.64813 | 34061 ft | 441 kts | 218° |
| 2026-04-20 03:31 | 26.91623 | -125.68541 | 34074 ft | 446 kts | 218° |
| 2026-04-20 03:31 | 26.86423 | -125.72238 | 34068 ft | 444 kts | 218° |
| 2026-04-20 03:32 | 26.81211 | -125.75946 | 34062 ft | 442 kts | 218° |
| 2026-04-20 03:32 | 26.75993 | -125.79652 | 34069 ft | 444 kts | 218° |
| 2026-04-20 03:33 | 26.70795 | -125.83339 | 34067 ft | 446 kts | 218° |
| 2026-04-20 03:33 | 26.65541 | -125.87061 | 34057 ft | 446 kts | 219° |
| 2026-04-20 03:34 | 26.60276 | -125.90789 | 34058 ft | 448 kts | 219° |
| 2026-04-20 03:34 | 26.55042 | -125.94488 | 34058 ft | 447 kts | 219° |
| 2026-04-20 03:35 | 26.49772 | -125.98211 | 34063 ft | 446 kts | 219° |
| 2026-04-20 03:35 | 26.44554 | -126.01892 | 34060 ft | 445 kts | 219° |
| 2026-04-20 03:36 | 26.39309 | -126.05588 | 34059 ft | 445 kts | 219° |
| 2026-04-20 03:36 | 26.34943 | -126.08661 | 34069 ft | 446 kts | 220° |
| 2026-04-20 03:37 | 26.29673 | -126.12370 | 34066 ft | 448 kts | 220° |
| 2026-04-20 03:37 | 26.24423 | -126.16056 | 34073 ft | 448 kts | 220° |
| 2026-04-20 03:38 | 26.19139 | -126.19765 | 34074 ft | 448 kts | 220° |
| 2026-04-20 03:38 | 26.13884 | -126.23449 | 34075 ft | 448 kts | 220° |
| 2026-04-20 03:39 | 26.08596 | -126.27152 | 34069 ft | 448 kts | 220° |
| 2026-04-20 03:39 | 26.02453 | -126.31448 | 34060 ft | 447 kts | 220° |
| 2026-04-20 03:40 | 25.98070 | -126.34510 | 34057 ft | 445 kts | 220° |
| 2026-04-20 03:40 | 25.92808 | -126.38184 | 34058 ft | 445 kts | 220° |
| 2026-04-20 03:41 | 25.87583 | -126.41827 | 34057 ft | 445 kts | 220° |
| 2026-04-20 03:41 | 25.82348 | -126.45473 | 34057 ft | 445 kts | 220° |
| 2026-04-20 03:42 | 25.77087 | -126.49134 | 34061 ft | 446 kts | 220° |
| 2026-04-20 03:42 | 25.71862 | -126.52764 | 34068 ft | 443 kts | 221° |
| 2026-04-20 03:43 | 25.66638 | -126.56393 | 34056 ft | 442 kts | 221° |
| 2026-04-20 03:43 | 25.61419 | -126.60012 | 34057 ft | 442 kts | 221° |
| 2026-04-20 03:44 | 25.56205 | -126.63625 | 34056 ft | 442 kts | 221° |
| 2026-04-20 03:44 | 25.51010 | -126.67221 | 34058 ft | 443 kts | 220° |
| 2026-04-20 03:45 | 25.45774 | -126.70841 | 34066 ft | 443 kts | 220° |
| 2026-04-20 03:45 | 25.40526 | -126.74467 | 34068 ft | 444 kts | 220° |
| 2026-04-20 03:46 | 25.35328 | -126.78051 | 34059 ft | 441 kts | 220° |
| 2026-04-20 03:46 | 25.30129 | -126.81637 | 34060 ft | 440 kts | 220° |
| 2026-04-20 03:47 | 25.24932 | -126.85215 | 34059 ft | 440 kts | 220° |
| 2026-04-20 03:47 | 25.19728 | -126.88795 | 34058 ft | 440 kts | 220° |
| 2026-04-20 03:48 | 25.14558 | -126.92348 | 34062 ft | 440 kts | 220° |
| 2026-04-20 03:48 | 25.09351 | -126.95922 | 34064 ft | 441 kts | 220° |
| 2026-04-20 03:49 | 25.04125 | -126.99506 | 34070 ft | 441 kts | 220° |
| 2026-04-20 03:49 | 24.98945 | -127.03054 | 34062 ft | 440 kts | 220° |
| 2026-04-20 03:50 | 24.93729 | -127.06625 | 34075 ft | 441 kts | 220° |
| 2026-04-20 03:50 | 24.88541 | -127.10171 | 34059 ft | 440 kts | 220° |
| 2026-04-20 03:51 | 24.83333 | -127.13730 | 34079 ft | 440 kts | 220° |
| 2026-04-20 03:51 | 24.78121 | -127.17288 | 34067 ft | 443 kts | 219° |
| 2026-04-20 03:52 | 24.72833 | -127.20892 | 34069 ft | 449 kts | 219° |
| 2026-04-20 03:52 | 24.67521 | -127.24507 | 34071 ft | 449 kts | 219° |
| 2026-04-20 03:53 | 24.62209 | -127.28123 | 34073 ft | 450 kts | 219° |
| 2026-04-20 03:53 | 24.56879 | -127.31744 | 34076 ft | 450 kts | 219° |
| 2026-04-20 03:54 | 24.51561 | -127.35354 | 34077 ft | 449 kts | 219° |
| 2026-04-20 03:54 | 24.46240 | -127.38964 | 34067 ft | 451 kts | 218° |
| 2026-04-20 03:55 | 24.40874 | -127.42599 | 34068 ft | 453 kts | 218° |
| 2026-04-20 03:55 | 24.35513 | -127.46227 | 34067 ft | 452 kts | 218° |
| 2026-04-20 03:56 | 24.30167 | -127.49842 | 34065 ft | 452 kts | 218° |
| 2026-04-20 03:56 | 24.24810 | -127.53466 | 34059 ft | 453 kts | 219° |
| 2026-04-20 03:57 | 24.19525 | -127.57236 | 34072 ft | 454 kts | 219° |
| 2026-04-20 03:57 | 24.14243 | -127.60977 | 34070 ft | 451 kts | 220° |
| 2026-04-20 03:58 | 24.08988 | -127.64720 | 34073 ft | 450 kts | 219° |
| 2026-04-20 03:58 | 24.03728 | -127.68446 | 34062 ft | 450 kts | 219° |
| 2026-04-20 03:59 | 23.98470 | -127.72178 | 34068 ft | 450 kts | 219° |
| 2026-04-20 03:59 | 23.93247 | -127.75874 | 34067 ft | 451 kts | 219° |
| 2026-04-20 04:00 | 23.87964 | -127.79612 | 34071 ft | 452 kts | 219° |
| 2026-04-20 04:00 | 23.82689 | -127.83339 | 34080 ft | 452 kts | 220° |
| 2026-04-20 04:01 | 23.77393 | -127.87080 | 34083 ft | 453 kts | 220° |
| 2026-04-20 04:01 | 23.72095 | -127.90815 | 34084 ft | 452 kts | 220° |
| 2026-04-20 04:02 | 23.66808 | -127.94541 | 34081 ft | 452 kts | 220° |
| 2026-04-20 04:02 | 23.61539 | -127.98250 | 34072 ft | 450 kts | 220° |
| 2026-04-20 04:03 | 23.56324 | -128.01919 | 34071 ft | 450 kts | 220° |
| 2026-04-20 04:03 | 23.51075 | -128.05605 | 34072 ft | 448 kts | 220° |
| 2026-04-20 04:04 | 23.45837 | -128.09283 | 34068 ft | 448 kts | 220° |
| 2026-04-20 04:04 | 23.40597 | -128.12958 | 34065 ft | 448 kts | 220° |
| 2026-04-20 04:05 | 23.35360 | -128.16627 | 34068 ft | 448 kts | 220° |
| 2026-04-20 04:05 | 23.30120 | -128.20294 | 34065 ft | 447 kts | 220° |
| 2026-04-20 04:06 | 23.24913 | -128.23935 | 34063 ft | 444 kts | 220° |
| 2026-04-20 04:06 | 23.19697 | -128.27582 | 34064 ft | 448 kts | 220° |
| 2026-04-20 04:07 | 23.14426 | -128.31258 | 34071 ft | 450 kts | 220° |
| 2026-04-20 04:07 | 23.09203 | -128.34900 | 34070 ft | 448 kts | 220° |
| 2026-04-20 04:08 | 23.03967 | -128.38548 | 34061 ft | 447 kts | 220° |
| 2026-04-20 04:08 | 22.98726 | -128.42196 | 34059 ft | 448 kts | 220° |
| 2026-04-20 04:09 | 22.93468 | -128.45852 | 34065 ft | 449 kts | 220° |
| 2026-04-20 04:09 | 22.88193 | -128.49518 | 34062 ft | 453 kts | 219° |
| 2026-04-20 04:10 | 22.82868 | -128.53212 | 34073 ft | 454 kts | 219° |
| 2026-04-20 04:10 | 22.77565 | -128.56888 | 34071 ft | 452 kts | 219° |
| 2026-04-20 04:11 | 22.72276 | -128.60553 | 34066 ft | 451 kts | 219° |
| 2026-04-20 04:11 | 22.66986 | -128.64215 | 34067 ft | 452 kts | 219° |
| 2026-04-20 04:12 | 22.61683 | -128.67880 | 34071 ft | 450 kts | 219° |
| 2026-04-20 04:12 | 22.56416 | -128.71520 | 34062 ft | 451 kts | 219° |
| 2026-04-20 04:13 | 22.51103 | -128.75187 | 34075 ft | 453 kts | 219° |
| 2026-04-20 04:13 | 22.45788 | -128.78850 | 34070 ft | 453 kts | 219° |
| 2026-04-20 04:14 | 22.40481 | -128.82507 | 34078 ft | 452 kts | 219° |
| 2026-04-20 04:14 | 22.35165 | -128.86165 | 34070 ft | 452 kts | 219° |
| 2026-04-20 04:15 | 22.29856 | -128.89817 | 34068 ft | 452 kts | 219° |
| 2026-04-20 04:15 | 22.24554 | -128.93458 | 34068 ft | 451 kts | 219° |
| 2026-04-20 04:16 | 22.19265 | -128.97089 | 34072 ft | 451 kts | 219° |
| 2026-04-20 04:16 | 22.13968 | -129.00722 | 34070 ft | 451 kts | 219° |
| 2026-04-20 04:17 | 22.08665 | -129.04355 | 34070 ft | 452 kts | 219° |
| 2026-04-20 04:17 | 22.03349 | -129.07994 | 34079 ft | 452 kts | 219° |
| 2026-04-20 04:18 | 21.98070 | -129.11605 | 34070 ft | 453 kts | 219° |
| 2026-04-20 04:18 | 21.92737 | -129.15249 | 34062 ft | 455 kts | 219° |
| 2026-04-20 04:19 | 21.87392 | -129.18896 | 34059 ft | 454 kts | 219° |
| 2026-04-20 04:19 | 21.82152 | -129.22645 | 34076 ft | 447 kts | 225° |
| 2026-04-20 04:20 | 21.77204 | -129.26743 | 34068 ft | 450 kts | 224° |
| 2026-04-20 04:20 | 21.72237 | -129.30850 | 34075 ft | 450 kts | 224° |
| 2026-04-20 04:21 | 21.67271 | -129.34959 | 34072 ft | 450 kts | 224° |
| 2026-04-20 04:21 | 21.62305 | -129.39058 | 34060 ft | 450 kts | 224° |
| 2026-04-20 04:22 | 21.57327 | -129.43169 | 34061 ft | 452 kts | 224° |
| 2026-04-20 04:22 | 21.52336 | -129.47281 | 34061 ft | 452 kts | 224° |
| 2026-04-20 04:23 | 21.47353 | -129.51388 | 34063 ft | 452 kts | 224° |
| 2026-04-20 04:23 | 21.42359 | -129.55498 | 34060 ft | 452 kts | 224° |
| 2026-04-20 04:24 | 21.37366 | -129.59604 | 34055 ft | 452 kts | 224° |
| 2026-04-20 04:24 | 21.32372 | -129.63707 | 34055 ft | 452 kts | 224° |
| 2026-04-20 04:25 | 21.27365 | -129.67818 | 34060 ft | 454 kts | 224° |
| 2026-04-20 04:25 | 21.22341 | -129.71936 | 34062 ft | 454 kts | 224° |
| 2026-04-20 04:26 | 21.18173 | -129.75353 | 34061 ft | 453 kts | 224° |
| 2026-04-20 04:26 | 21.12353 | -129.80118 | 34057 ft | 453 kts | 224° |
| 2026-04-20 04:27 | 21.07353 | -129.84207 | 34052 ft | 451 kts | 223° |
| 2026-04-20 04:27 | 21.02361 | -129.88288 | 34055 ft | 452 kts | 223° |
| 2026-04-20 04:28 | 20.97354 | -129.92378 | 34034 ft | 454 kts | 223° |
| 2026-04-20 04:28 | 20.93167 | -129.95794 | 34060 ft | 457 kts | 223° |
| 2026-04-20 04:29 | 20.88108 | -129.99916 | 34059 ft | 456 kts | 223° |
| 2026-04-20 04:29 | 20.83068 | -130.04024 | 34055 ft | 455 kts | 223° |
| 2026-04-20 04:30 | 20.78040 | -130.08115 | 34048 ft | 453 kts | 223° |
| 2026-04-20 04:30 | 20.73018 | -130.12200 | 34051 ft | 454 kts | 223° |
| 2026-04-20 04:31 | 20.67974 | -130.16298 | 34059 ft | 456 kts | 223° |
| 2026-04-20 04:31 | 20.62909 | -130.20410 | 34047 ft | 459 kts | 223° |
| 2026-04-20 04:32 | 20.57822 | -130.24535 | 34048 ft | 459 kts | 223° |
| 2026-04-20 04:32 | 20.52746 | -130.28648 | 34045 ft | 457 kts | 223° |
| 2026-04-20 04:33 | 20.47685 | -130.32746 | 34044 ft | 456 kts | 223° |
| 2026-04-20 04:33 | 20.42665 | -130.36808 | 34046 ft | 457 kts | 223° |
| 2026-04-20 04:34 | 20.37590 | -130.40911 | 34043 ft | 458 kts | 223° |
| 2026-04-20 04:34 | 20.32494 | -130.45026 | 34049 ft | 459 kts | 223° |
| 2026-04-20 04:35 | 20.27384 | -130.49150 | 34050 ft | 461 kts | 223° |
| 2026-04-20 04:35 | 20.22274 | -130.53268 | 34044 ft | 460 kts | 223° |
| 2026-04-20 04:36 | 20.14629 | -130.59427 | 34041 ft | 459 kts | 223° |
| 2026-04-20 04:37 | 20.09544 | -130.63518 | 34038 ft | 459 kts | 223° |
| 2026-04-20 04:37 | 20.04439 | -130.67623 | 34039 ft | 461 kts | 222° |
| 2026-04-20 04:38 | 19.99316 | -130.71737 | 34052 ft | 461 kts | 222° |
| 2026-04-20 04:38 | 19.94190 | -130.75851 | 34039 ft | 462 kts | 222° |
| 2026-04-20 04:39 | 19.89092 | -130.79940 | 34041 ft | 462 kts | 222° |
| 2026-04-20 04:39 | 19.83953 | -130.84057 | 34045 ft | 462 kts | 222° |
| 2026-04-20 04:40 | 19.78823 | -130.88164 | 34040 ft | 461 kts | 222° |
| 2026-04-20 04:40 | 19.73700 | -130.92262 | 34051 ft | 460 kts | 223° |
| 2026-04-20 04:41 | 19.68594 | -130.96343 | 34044 ft | 459 kts | 223° |
| 2026-04-20 04:41 | 19.63490 | -131.00420 | 34047 ft | 461 kts | 222° |
| 2026-04-20 04:42 | 19.58350 | -131.04520 | 34050 ft | 463 kts | 222° |
| 2026-04-20 04:42 | 19.53201 | -131.08626 | 34050 ft | 463 kts | 222° |
| 2026-04-20 04:43 | 19.48047 | -131.12732 | 34038 ft | 463 kts | 222° |
| 2026-04-20 04:43 | 19.42922 | -131.16811 | 34043 ft | 462 kts | 222° |
| 2026-04-20 04:44 | 19.37782 | -131.20900 | 34040 ft | 462 kts | 222° |
| 2026-04-20 04:44 | 19.32635 | -131.24989 | 34026 ft | 461 kts | 222° |
| 2026-04-20 04:45 | 19.27518 | -131.29054 | 34037 ft | 463 kts | 222° |
| 2026-04-20 04:45 | 19.22345 | -131.33157 | 34042 ft | 464 kts | 222° |
| 2026-04-20 04:46 | 19.17160 | -131.37268 | 34040 ft | 464 kts | 222° |
| 2026-04-20 04:46 | 19.12009 | -131.41349 | 34042 ft | 465 kts | 222° |
| 2026-04-20 04:47 | 19.06825 | -131.45452 | 34044 ft | 465 kts | 222° |
| 2026-04-20 04:47 | 19.01662 | -131.49535 | 34043 ft | 465 kts | 222° |
| 2026-04-20 04:48 | 18.96471 | -131.53637 | 34045 ft | 465 kts | 222° |
| 2026-04-20 04:48 | 18.91259 | -131.57753 | 34043 ft | 466 kts | 222° |
| 2026-04-20 04:49 | 18.86101 | -131.61822 | 34043 ft | 465 kts | 222° |
| 2026-04-20 04:49 | 18.80921 | -131.65906 | 34036 ft | 463 kts | 222° |
| 2026-04-20 04:50 | 18.75761 | -131.69971 | 34035 ft | 462 kts | 222° |
| 2026-04-20 04:50 | 18.70625 | -131.74014 | 34036 ft | 463 kts | 222° |
| 2026-04-20 04:51 | 18.65443 | -131.78090 | 34029 ft | 465 kts | 222° |
| 2026-04-20 04:51 | 18.60222 | -131.82193 | 34035 ft | 467 kts | 222° |
| 2026-04-20 04:52 | 18.55042 | -131.86260 | 34034 ft | 466 kts | 222° |
| 2026-04-20 04:52 | 18.49834 | -131.90348 | 34033 ft | 465 kts | 222° |
| 2026-04-20 04:53 | 18.44665 | -131.94400 | 34033 ft | 465 kts | 222° |
| 2026-04-20 04:53 | 18.39470 | -131.98471 | 34032 ft | 464 kts | 222° |
| 2026-04-20 04:54 | 18.34269 | -132.02543 | 34039 ft | 466 kts | 222° |
| 2026-04-20 04:54 | 18.29061 | -132.06617 | 34042 ft | 469 kts | 222° |
| 2026-04-20 04:55 | 18.23800 | -132.10728 | 34038 ft | 469 kts | 222° |
| 2026-04-20 04:55 | 18.18579 | -132.14818 | 34043 ft | 468 kts | 224° |
| 2026-04-20 04:56 | 18.13758 | -132.19305 | 34037 ft | 465 kts | 226° |
| 2026-04-20 04:56 | 18.08906 | -132.23833 | 34042 ft | 465 kts | 227° |
| 2026-04-20 04:57 | 18.04072 | -132.28375 | 34045 ft | 466 kts | 226° |
| 2026-04-20 04:57 | 17.99244 | -132.32888 | 34031 ft | 468 kts | 226° |
| 2026-04-20 04:58 | 17.94377 | -132.37443 | 34031 ft | 467 kts | 226° |
| 2026-04-20 04:58 | 17.89512 | -132.41989 | 34029 ft | 467 kts | 226° |
| 2026-04-20 04:59 | 17.84647 | -132.46534 | 34027 ft | 468 kts | 226° |
| 2026-04-20 04:59 | 17.79776 | -132.51080 | 34028 ft | 468 kts | 226° |
| 2026-04-20 05:00 | 17.74928 | -132.55601 | 34033 ft | 468 kts | 226° |
| 2026-04-20 05:00 | 17.70041 | -132.60155 | 34034 ft | 469 kts | 226° |
| 2026-04-20 05:01 | 17.65179 | -132.64683 | 34036 ft | 470 kts | 226° |
| 2026-04-20 05:01 | 17.60286 | -132.69234 | 34035 ft | 469 kts | 226° |
| 2026-04-20 05:02 | 17.55411 | -132.73767 | 34032 ft | 468 kts | 226° |
| 2026-04-20 05:02 | 17.50547 | -132.78286 | 34028 ft | 467 kts | 226° |
| 2026-04-20 05:03 | 17.45685 | -132.82800 | 34029 ft | 468 kts | 226° |
| 2026-04-20 05:03 | 17.40808 | -132.87325 | 34031 ft | 469 kts | 226° |
| 2026-04-20 05:04 | 17.35921 | -132.91855 | 34035 ft | 470 kts | 226° |
| 2026-04-20 05:04 | 17.31022 | -132.96394 | 34032 ft | 471 kts | 226° |
| 2026-04-20 05:05 | 17.26143 | -133.00909 | 34031 ft | 470 kts | 226° |
| 2026-04-20 05:05 | 17.21215 | -133.05467 | 34030 ft | 470 kts | 226° |
| 2026-04-20 05:06 | 17.16350 | -133.09963 | 34031 ft | 470 kts | 226° |
| 2026-04-20 05:06 | 17.11452 | -133.14487 | 34031 ft | 470 kts | 226° |
| 2026-04-20 05:07 | 17.06552 | -133.19010 | 34034 ft | 470 kts | 226° |
| 2026-04-20 05:07 | 17.01649 | -133.23531 | 34032 ft | 470 kts | 226° |
| 2026-04-20 05:08 | 16.96735 | -133.28061 | 34028 ft | 472 kts | 226° |
| 2026-04-20 05:08 | 16.91803 | -133.32601 | 34034 ft | 473 kts | 226° |
| 2026-04-20 05:09 | 16.86865 | -133.37146 | 34041 ft | 473 kts | 226° |
| 2026-04-20 05:09 | 16.81927 | -133.41687 | 34041 ft | 473 kts | 226° |
| 2026-04-20 05:10 | 16.76990 | -133.46224 | 34034 ft | 473 kts | 226° |
| 2026-04-20 05:10 | 16.72044 | -133.50765 | 34036 ft | 474 kts | 226° |
| 2026-04-20 05:11 | 16.67089 | -133.55312 | 34026 ft | 474 kts | 226° |
| 2026-04-20 05:11 | 16.62142 | -133.59847 | 34024 ft | 473 kts | 226° |
| 2026-04-20 05:12 | 16.57238 | -133.64340 | 34021 ft | 472 kts | 226° |
| 2026-04-20 05:12 | 16.52300 | -133.68862 | 34021 ft | 473 kts | 226° |
| 2026-04-20 05:13 | 16.47352 | -133.73389 | 34023 ft | 474 kts | 226° |
| 2026-04-20 05:13 | 16.42393 | -133.77924 | 34023 ft | 475 kts | 226° |
| 2026-04-20 05:14 | 16.37422 | -133.82465 | 34026 ft | 475 kts | 226° |
| 2026-04-20 05:14 | 16.32442 | -133.87012 | 34015 ft | 476 kts | 225° |
| 2026-04-20 05:15 | 16.27470 | -133.91547 | 34017 ft | 474 kts | 225° |
| 2026-04-20 05:15 | 16.22521 | -133.96061 | 34016 ft | 473 kts | 225° |
| 2026-04-20 05:16 | 16.17569 | -134.00573 | 34015 ft | 474 kts | 225° |
| 2026-04-20 05:16 | 16.12603 | -134.05094 | 34017 ft | 475 kts | 225° |
| 2026-04-20 05:17 | 16.07629 | -134.09619 | 34017 ft | 476 kts | 225° |
| 2026-04-20 05:17 | 16.03485 | -134.13388 | 34020 ft | 476 kts | 225° |
| 2026-04-20 05:18 | 15.98503 | -134.17915 | 34015 ft | 476 kts | 225° |
| 2026-04-20 05:18 | 15.93519 | -134.22440 | 34015 ft | 476 kts | 225° |
| 2026-04-20 05:19 | 15.88536 | -134.26962 | 34015 ft | 476 kts | 225° |
| 2026-04-20 05:19 | 15.83539 | -134.31493 | 34011 ft | 477 kts | 225° |
| 2026-04-20 05:20 | 15.78539 | -134.36024 | 34014 ft | 477 kts | 225° |
| 2026-04-20 05:20 | 15.73539 | -134.40552 | 34009 ft | 477 kts | 225° |
| 2026-04-20 05:21 | 15.68545 | -134.45072 | 34009 ft | 476 kts | 225° |
| 2026-04-20 05:21 | 15.63584 | -134.49558 | 34007 ft | 476 kts | 225° |
| 2026-04-20 05:22 | 15.58593 | -134.54069 | 34006 ft | 476 kts | 225° |
| 2026-04-20 05:22 | 15.53600 | -134.58579 | 34006 ft | 475 kts | 225° |
| 2026-04-20 05:23 | 15.48612 | -134.63084 | 34012 ft | 475 kts | 227° |
| 2026-04-20 05:23 | 15.43929 | -134.67900 | 34012 ft | 475 kts | 229° |
| 2026-04-20 05:24 | 15.39236 | -134.72738 | 34016 ft | 476 kts | 229° |
| 2026-04-20 05:24 | 15.34583 | -134.77557 | 34008 ft | 475 kts | 229° |
| 2026-04-20 05:25 | 15.29886 | -134.82403 | 34012 ft | 475 kts | 229° |
| 2026-04-20 05:25 | 15.25223 | -134.87219 | 34011 ft | 475 kts | 229° |
| 2026-04-20 05:26 | 15.20533 | -134.92055 | 34011 ft | 475 kts | 229° |
| 2026-04-20 05:26 | 15.15843 | -134.96891 | 34011 ft | 475 kts | 229° |
| 2026-04-20 05:27 | 15.11174 | -135.01700 | 34008 ft | 475 kts | 229° |
| 2026-04-20 05:27 | 15.06476 | -135.06537 | 34005 ft | 475 kts | 229° |
| 2026-04-20 05:28 | 15.01809 | -135.11338 | 34009 ft | 476 kts | 229° |
| 2026-04-20 05:28 | 14.97096 | -135.16184 | 34012 ft | 477 kts | 229° |
| 2026-04-20 05:29 | 14.92376 | -135.21034 | 33997 ft | 477 kts | 229° |
| 2026-04-20 05:29 | 14.87690 | -135.25844 | 33997 ft | 475 kts | 229° |
| 2026-04-20 05:30 | 14.82996 | -135.30662 | 34011 ft | 474 kts | 229° |
| 2026-04-20 05:30 | 14.78327 | -135.35449 | 34018 ft | 476 kts | 229° |
| 2026-04-20 05:31 | 14.73603 | -135.40289 | 34009 ft | 477 kts | 229° |
| 2026-04-20 05:31 | 14.68890 | -135.45116 | 34018 ft | 476 kts | 229° |
| 2026-04-20 05:32 | 14.64192 | -135.49926 | 34007 ft | 476 kts | 228° |
| 2026-04-20 05:32 | 14.59503 | -135.54721 | 34010 ft | 477 kts | 228° |
| 2026-04-20 05:33 | 14.54770 | -135.59559 | 34002 ft | 477 kts | 228° |
| 2026-04-20 05:33 | 14.50081 | -135.64349 | 34005 ft | 476 kts | 228° |
| 2026-04-20 05:34 | 14.45364 | -135.69164 | 33997 ft | 475 kts | 228° |
| 2026-04-20 05:34 | 14.38282 | -135.76389 | 33995 ft | 478 kts | 228° |
| 2026-04-20 05:35 | 14.33572 | -135.81189 | 34008 ft | 478 kts | 228° |
| 2026-04-20 05:35 | 14.28841 | -135.86008 | 34005 ft | 478 kts | 228° |
| 2026-04-20 05:36 | 14.24105 | -135.90830 | 33994 ft | 477 kts | 228° |
| 2026-04-20 05:36 | 14.19364 | -135.95653 | 33996 ft | 479 kts | 228° |
| 2026-04-20 05:37 | 14.14641 | -136.00454 | 33994 ft | 479 kts | 228° |
| 2026-04-20 05:37 | 14.09897 | -136.05275 | 33989 ft | 477 kts | 228° |
| 2026-04-20 05:38 | 14.05201 | -136.10044 | 33991 ft | 476 kts | 228° |
| 2026-04-20 05:38 | 14.00471 | -136.14845 | 33986 ft | 478 kts | 228° |
| 2026-04-20 05:39 | 13.95711 | -136.19671 | 33985 ft | 479 kts | 228° |
| 2026-04-20 05:39 | 13.90991 | -136.24455 | 33995 ft | 478 kts | 228° |
| 2026-04-20 05:40 | 13.86240 | -136.29269 | 33994 ft | 478 kts | 228° |
| 2026-04-20 05:40 | 13.81523 | -136.34044 | 33983 ft | 477 kts | 228° |
| 2026-04-20 05:41 | 13.76777 | -136.38846 | 33985 ft | 477 kts | 228° |
| 2026-04-20 05:41 | 13.72060 | -136.43615 | 33991 ft | 477 kts | 228° |
| 2026-04-20 05:42 | 13.67325 | -136.48400 | 33985 ft | 476 kts | 228° |
| 2026-04-20 05:42 | 13.62616 | -136.53156 | 33984 ft | 477 kts | 228° |
| 2026-04-20 05:43 | 13.57868 | -136.57949 | 33978 ft | 479 kts | 227° |
| 2026-04-20 05:43 | 13.53093 | -136.62765 | 33984 ft | 480 kts | 227° |
| 2026-04-20 05:44 | 13.48325 | -136.67572 | 33980 ft | 480 kts | 227° |
| 2026-04-20 05:44 | 13.43583 | -136.72350 | 33980 ft | 479 kts | 227° |
| 2026-04-20 05:45 | 13.38812 | -136.77154 | 33979 ft | 479 kts | 227° |
| 2026-04-20 05:45 | 13.34033 | -136.81964 | 33971 ft | 481 kts | 227° |
| 2026-04-20 05:46 | 13.29274 | -136.86750 | 33980 ft | 481 kts | 227° |
| 2026-04-20 05:46 | 13.24485 | -136.91565 | 33981 ft | 481 kts | 227° |
| 2026-04-20 05:47 | 13.19693 | -136.96379 | 33980 ft | 481 kts | 227° |
| 2026-04-20 05:47 | 13.14928 | -137.01163 | 33975 ft | 481 kts | 227° |
| 2026-04-20 05:48 | 13.10122 | -137.05986 | 33979 ft | 483 kts | 227° |
| 2026-04-20 05:48 | 13.05316 | -137.10805 | 33976 ft | 483 kts | 227° |
| 2026-04-20 05:49 | 13.00531 | -137.15602 | 33973 ft | 483 kts | 227° |
| 2026-04-20 05:49 | 12.95724 | -137.20417 | 33973 ft | 482 kts | 227° |
| 2026-04-20 05:50 | 12.90914 | -137.25233 | 33974 ft | 484 kts | 227° |
| 2026-04-20 05:50 | 12.86105 | -137.30044 | 33976 ft | 485 kts | 227° |
| 2026-04-20 05:51 | 12.81269 | -137.34880 | 33976 ft | 485 kts | 227° |
| 2026-04-20 05:51 | 12.76474 | -137.39673 | 33970 ft | 484 kts | 227° |
| 2026-04-20 05:52 | 12.71638 | -137.44504 | 33970 ft | 483 kts | 226° |
| 2026-04-20 05:52 | 12.66836 | -137.49299 | 33971 ft | 486 kts | 226° |
| 2026-04-20 05:53 | 12.61985 | -137.54138 | 33960 ft | 486 kts | 226° |
| 2026-04-20 05:53 | 12.57129 | -137.58981 | 33966 ft | 486 kts | 226° |
| 2026-04-20 05:54 | 12.52318 | -137.63775 | 33969 ft | 484 kts | 226° |
| 2026-04-20 05:54 | 12.47486 | -137.68590 | 33964 ft | 485 kts | 226° |
| 2026-04-20 05:55 | 12.42624 | -137.73429 | 33964 ft | 488 kts | 226° |
| 2026-04-20 05:55 | 12.37781 | -137.78248 | 33966 ft | 488 kts | 226° |
| 2026-04-20 05:56 | 12.32912 | -137.83090 | 33971 ft | 487 kts | 226° |
| 2026-04-20 05:56 | 12.28056 | -137.87917 | 33974 ft | 485 kts | 226° |
| 2026-04-20 05:57 | 12.23207 | -137.92735 | 33967 ft | 488 kts | 226° |
| 2026-04-20 05:57 | 12.18353 | -137.97553 | 33961 ft | 489 kts | 226° |
| 2026-04-20 05:58 | 12.13473 | -138.02397 | 33968 ft | 488 kts | 226° |
| 2026-04-20 05:58 | 12.08596 | -138.07233 | 33970 ft | 486 kts | 226° |
| 2026-04-20 05:59 | 12.03772 | -138.12016 | 33966 ft | 485 kts | 226° |
| 2026-04-20 05:59 | 11.98900 | -138.16843 | 33962 ft | 489 kts | 226° |
| 2026-04-20 06:00 | 11.94004 | -138.21690 | 33966 ft | 489 kts | 226° |
| 2026-04-20 06:00 | 11.89152 | -138.26493 | 33967 ft | 488 kts | 226° |
| 2026-04-20 06:01 | 11.84279 | -138.31313 | 33963 ft | 486 kts | 226° |
| 2026-04-20 06:01 | 11.79439 | -138.36098 | 33961 ft | 488 kts | 226° |
| 2026-04-20 06:02 | 11.74538 | -138.40941 | 33961 ft | 490 kts | 226° |
| 2026-04-20 06:02 | 11.69627 | -138.45790 | 33971 ft | 490 kts | 226° |
| 2026-04-20 06:03 | 11.64729 | -138.50625 | 33970 ft | 489 kts | 226° |
| 2026-04-20 06:03 | 11.59835 | -138.55455 | 33962 ft | 488 kts | 226° |
| 2026-04-20 06:04 | 11.54966 | -138.60256 | 33963 ft | 488 kts | 226° |
| 2026-04-20 06:04 | 11.50077 | -138.65075 | 33964 ft | 489 kts | 226° |
| 2026-04-20 06:05 | 11.45220 | -138.69859 | 33958 ft | 487 kts | 225° |
| 2026-04-20 06:05 | 11.40350 | -138.74656 | 33959 ft | 486 kts | 226° |
| 2026-04-20 06:06 | 11.35769 | -138.79731 | 33971 ft | 487 kts | 229° |
| 2026-04-20 06:06 | 11.31168 | -138.84839 | 33967 ft | 489 kts | 229° |
| 2026-04-20 06:07 | 11.26599 | -138.89944 | 33968 ft | 490 kts | 229° |
| 2026-04-20 06:07 | 11.21988 | -138.95070 | 33971 ft | 490 kts | 229° |
| 2026-04-20 06:08 | 11.17408 | -139.00174 | 33972 ft | 490 kts | 229° |
| 2026-04-20 06:08 | 11.13578 | -139.04433 | 33971 ft | 489 kts | 229° |
| 2026-04-20 06:09 | 11.08218 | -139.10394 | 33970 ft | 491 kts | 229° |
| 2026-04-20 06:09 | 11.03602 | -139.15525 | 33962 ft | 491 kts | 229° |
| 2026-04-20 06:10 | 10.99763 | -139.19790 | 33964 ft | 491 kts | 229° |
| 2026-04-20 06:10 | 10.95138 | -139.24925 | 33965 ft | 491 kts | 229° |
| 2026-04-20 06:11 | 10.90513 | -139.30058 | 33965 ft | 491 kts | 229° |
| 2026-04-20 06:11 | 10.85918 | -139.35156 | 33964 ft | 491 kts | 229° |
| 2026-04-20 06:12 | 10.81289 | -139.40289 | 33962 ft | 492 kts | 229° |
| 2026-04-20 06:12 | 10.76657 | -139.45423 | 33965 ft | 492 kts | 229° |
| 2026-04-20 06:13 | 10.72041 | -139.50536 | 33967 ft | 493 kts | 229° |
| 2026-04-20 06:13 | 10.67403 | -139.55670 | 33965 ft | 491 kts | 229° |
| 2026-04-20 06:14 | 10.62809 | -139.60755 | 33959 ft | 490 kts | 228° |
| 2026-04-20 06:14 | 10.58183 | -139.65872 | 33955 ft | 491 kts | 228° |
| 2026-04-20 06:15 | 10.53575 | -139.70966 | 33961 ft | 492 kts | 228° |
| 2026-04-20 06:15 | 10.48934 | -139.76095 | 33962 ft | 492 kts | 228° |
| 2026-04-20 06:16 | 10.44300 | -139.81213 | 33959 ft | 491 kts | 228° |
| 2026-04-20 06:16 | 10.39670 | -139.86325 | 33955 ft | 490 kts | 228° |
| 2026-04-20 06:17 | 10.35062 | -139.91410 | 33958 ft | 493 kts | 228° |
| 2026-04-20 06:17 | 10.30406 | -139.96545 | 33960 ft | 493 kts | 228° |
| 2026-04-20 06:18 | 10.25782 | -140.01643 | 33954 ft | 492 kts | 228° |
| 2026-04-20 06:18 | 10.21134 | -140.06764 | 33953 ft | 492 kts | 228° |
| 2026-04-20 06:19 | 10.16509 | -140.11858 | 33961 ft | 492 kts | 228° |
| 2026-04-20 06:19 | 10.11853 | -140.16985 | 33958 ft | 493 kts | 228° |
| 2026-04-20 06:20 | 10.07227 | -140.22075 | 33955 ft | 492 kts | 228° |
| 2026-04-20 06:20 | 10.02582 | -140.27185 | 33952 ft | 492 kts | 228° |
| 2026-04-20 06:21 | 9.97925 | -140.32305 | 33961 ft | 493 kts | 228° |
| 2026-04-20 06:21 | 9.93267 | -140.37423 | 33962 ft | 493 kts | 228° |
| 2026-04-20 06:22 | 9.88634 | -140.42512 | 33953 ft | 494 kts | 228° |
| 2026-04-20 06:22 | 9.83992 | -140.47609 | 33953 ft | 493 kts | 228° |
| 2026-04-20 06:23 | 9.79694 | -140.53007 | 33955 ft | 492 kts | 232° |
| 2026-04-20 06:23 | 9.75437 | -140.58458 | 33959 ft | 492 kts | 232° |
| 2026-04-20 06:24 | 9.71212 | -140.63878 | 33956 ft | 492 kts | 232° |
| 2026-04-20 06:24 | 9.66961 | -140.69322 | 33958 ft | 491 kts | 232° |
| 2026-04-20 06:25 | 9.62708 | -140.74771 | 33956 ft | 493 kts | 232° |
| 2026-04-20 06:25 | 9.58448 | -140.80224 | 33954 ft | 493 kts | 232° |
| 2026-04-20 06:26 | 9.54206 | -140.85652 | 33955 ft | 493 kts | 232° |
| 2026-04-20 06:26 | 9.49945 | -140.91102 | 33954 ft | 492 kts | 232° |
| 2026-04-20 06:27 | 9.45711 | -140.96514 | 33956 ft | 492 kts | 232° |
| 2026-04-20 06:27 | 9.41453 | -141.01956 | 33953 ft | 493 kts | 232° |
| 2026-04-20 06:28 | 9.37166 | -141.07431 | 33954 ft | 496 kts | 232° |
| 2026-04-20 06:28 | 9.32902 | -141.12875 | 33952 ft | 495 kts | 232° |
| 2026-04-20 06:29 | 9.28606 | -141.18357 | 33952 ft | 495 kts | 232° |
| 2026-04-20 06:29 | 9.24317 | -141.23829 | 33949 ft | 495 kts | 232° |
| 2026-04-20 06:30 | 9.20055 | -141.29262 | 33953 ft | 495 kts | 232° |
| 2026-04-20 06:30 | 9.15771 | -141.34723 | 33951 ft | 494 kts | 232° |
| 2026-04-20 06:31 | 9.11520 | -141.40138 | 33946 ft | 493 kts | 232° |
| 2026-04-20 06:31 | 9.07245 | -141.45582 | 33948 ft | 493 kts | 232° |
| 2026-04-20 06:32 | 9.02964 | -141.51031 | 33948 ft | 494 kts | 232° |
| 2026-04-20 06:32 | 8.98687 | -141.56473 | 33951 ft | 494 kts | 232° |
| 2026-04-20 06:33 | 8.94435 | -141.61880 | 33949 ft | 492 kts | 232° |
| 2026-04-20 06:33 | 8.90185 | -141.67282 | 33953 ft | 491 kts | 232° |
| 2026-04-20 06:34 | 8.85940 | -141.72678 | 33950 ft | 489 kts | 232° |
| 2026-04-20 06:35 | 8.79562 | -141.80777 | 33955 ft | 490 kts | 232° |
| 2026-04-20 06:35 | 8.75331 | -141.86149 | 33951 ft | 491 kts | 232° |
| 2026-04-20 06:36 | 8.71063 | -141.91564 | 33947 ft | 492 kts | 232° |
| 2026-04-20 06:36 | 8.66786 | -141.96990 | 33951 ft | 493 kts | 232° |
| 2026-04-20 06:37 | 8.62528 | -142.02388 | 33956 ft | 493 kts | 232° |
| 2026-04-20 06:37 | 8.58250 | -142.07810 | 33951 ft | 492 kts | 232° |
| 2026-04-20 06:38 | 8.53975 | -142.13226 | 33948 ft | 492 kts | 232° |
| 2026-04-20 06:38 | 8.49730 | -142.18601 | 33950 ft | 492 kts | 232° |
| 2026-04-20 06:39 | 8.45458 | -142.24009 | 33948 ft | 491 kts | 232° |
| 2026-04-20 06:39 | 8.41188 | -142.29412 | 33944 ft | 491 kts | 232° |
| 2026-04-20 06:40 | 8.36939 | -142.34786 | 33947 ft | 491 kts | 232° |
| 2026-04-20 06:40 | 8.32667 | -142.40188 | 33951 ft | 492 kts | 232° |
| 2026-04-20 06:41 | 8.28414 | -142.45562 | 33947 ft | 492 kts | 232° |
| 2026-04-20 06:41 | 8.24138 | -142.50965 | 33947 ft | 492 kts | 232° |
| 2026-04-20 06:42 | 8.19854 | -142.56375 | 33952 ft | 493 kts | 232° |
| 2026-04-20 06:42 | 8.15594 | -142.61752 | 33951 ft | 493 kts | 232° |
| 2026-04-20 06:43 | 8.11314 | -142.67155 | 33949 ft | 492 kts | 232° |
| 2026-04-20 06:43 | 8.07021 | -142.72570 | 33947 ft | 492 kts | 232° |
| 2026-04-20 06:44 | 8.02755 | -142.77948 | 33946 ft | 493 kts | 232° |
| 2026-04-20 06:44 | 7.98461 | -142.83361 | 33947 ft | 494 kts | 232° |
| 2026-04-20 06:45 | 7.94198 | -142.88732 | 33943 ft | 494 kts | 232° |
| 2026-04-20 06:45 | 7.89898 | -142.94149 | 33945 ft | 494 kts | 232° |
| 2026-04-20 06:46 | 7.85631 | -142.99522 | 33950 ft | 492 kts | 232° |
| 2026-04-20 06:46 | 7.81338 | -143.04925 | 33955 ft | 493 kts | 232° |
| 2026-04-20 06:47 | 7.77043 | -143.10329 | 33944 ft | 493 kts | 232° |
| 2026-04-20 06:47 | 7.72776 | -143.15696 | 33944 ft | 493 kts | 232° |
| 2026-04-20 06:48 | 7.68480 | -143.21096 | 33948 ft | 493 kts | 232° |
| 2026-04-20 06:48 | 7.64188 | -143.26491 | 33949 ft | 493 kts | 231° |
| 2026-04-20 06:49 | 7.59888 | -143.31893 | 33945 ft | 492 kts | 231° |
| 2026-04-20 06:49 | 7.55632 | -143.37239 | 33941 ft | 490 kts | 231° |
| 2026-04-20 06:50 | 7.51353 | -143.42610 | 33947 ft | 491 kts | 231° |
| 2026-04-20 06:50 | 7.47067 | -143.47990 | 33946 ft | 490 kts | 231° |
| 2026-04-20 06:51 | 7.42808 | -143.53333 | 33940 ft | 490 kts | 231° |
| 2026-04-20 06:51 | 7.38524 | -143.58707 | 33940 ft | 491 kts | 231° |
| 2026-04-20 06:52 | 7.34237 | -143.64081 | 33942 ft | 491 kts | 231° |
| 2026-04-20 06:52 | 7.29950 | -143.69454 | 33945 ft | 491 kts | 231° |
| 2026-04-20 06:53 | 7.25689 | -143.74793 | 33939 ft | 492 kts | 231° |
| 2026-04-20 06:53 | 7.21389 | -143.80178 | 33940 ft | 493 kts | 231° |
| 2026-04-20 06:54 | 7.17088 | -143.85564 | 33939 ft | 493 kts | 231° |
| 2026-04-20 06:54 | 7.12789 | -143.90944 | 33939 ft | 493 kts | 231° |
| 2026-04-20 06:55 | 7.08515 | -143.96292 | 33934 ft | 493 kts | 231° |
| 2026-04-20 06:55 | 7.04215 | -144.01670 | 33936 ft | 491 kts | 231° |
| 2026-04-20 06:56 | 6.99965 | -144.06984 | 33940 ft | 490 kts | 231° |
| 2026-04-20 06:56 | 6.95675 | -144.12346 | 33940 ft | 491 kts | 231° |
| 2026-04-20 06:57 | 6.91389 | -144.17702 | 33940 ft | 491 kts | 231° |
| 2026-04-20 06:57 | 6.87135 | -144.23017 | 33939 ft | 490 kts | 231° |
| 2026-04-20 06:58 | 6.82833 | -144.28388 | 33943 ft | 493 kts | 231° |
| 2026-04-20 06:58 | 6.78539 | -144.33748 | 33945 ft | 493 kts | 231° |
| 2026-04-20 06:59 | 6.74245 | -144.39108 | 33940 ft | 488 kts | 231° |
| 2026-04-20 06:59 | 6.70693 | -144.43539 | 33942 ft | 489 kts | 231° |
| 2026-04-20 07:00 | 6.65715 | -144.49748 | 33943 ft | 490 kts | 231° |
| 2026-04-20 07:00 | 6.62136 | -144.54211 | 33944 ft | 495 kts | 232° |
| 2026-04-20 07:01 | 6.57785 | -144.59635 | 33947 ft | 497 kts | 232° |
| 2026-04-20 07:01 | 6.53476 | -144.65004 | 33946 ft | 496 kts | 232° |
| 2026-04-20 07:02 | 6.49131 | -144.70417 | 33940 ft | 496 kts | 232° |
| 2026-04-20 07:02 | 6.44794 | -144.75817 | 33948 ft | 496 kts | 232° |
| 2026-04-20 07:03 | 6.40444 | -144.81235 | 33943 ft | 503 kts | 232° |
| 2026-04-20 07:03 | 6.36035 | -144.86721 | 33943 ft | 503 kts | 232° |
| 2026-04-20 07:04 | 6.31661 | -144.92164 | 33943 ft | 502 kts | 232° |
| 2026-04-20 07:04 | 6.27258 | -144.97641 | 33941 ft | 502 kts | 232° |
| 2026-04-20 07:05 | 6.22880 | -145.03084 | 33938 ft | 503 kts | 232° |
| 2026-04-20 07:05 | 6.18479 | -145.08557 | 33937 ft | 502 kts | 232° |
| 2026-04-20 07:06 | 6.14110 | -145.13997 | 33936 ft | 503 kts | 232° |
| 2026-04-20 07:06 | 6.09713 | -145.19466 | 33938 ft | 503 kts | 232° |
| 2026-04-20 07:07 | 6.05314 | -145.24938 | 33937 ft | 503 kts | 232° |
| 2026-04-20 07:07 | 6.00921 | -145.30401 | 33936 ft | 500 kts | 232° |
| 2026-04-20 07:08 | 5.96571 | -145.35808 | 33936 ft | 500 kts | 232° |
| 2026-04-20 07:08 | 5.92202 | -145.41237 | 33940 ft | 497 kts | 232° |
| 2026-04-20 07:09 | 5.87873 | -145.46615 | 33939 ft | 497 kts | 232° |
| 2026-04-20 07:09 | 5.83513 | -145.52030 | 33943 ft | 497 kts | 232° |
| 2026-04-20 07:10 | 5.79162 | -145.57433 | 33942 ft | 498 kts | 232° |
| 2026-04-20 07:10 | 5.74829 | -145.62812 | 33939 ft | 498 kts | 232° |
| 2026-04-20 07:11 | 5.70457 | -145.68239 | 33940 ft | 498 kts | 232° |
| 2026-04-20 07:11 | 5.66097 | -145.73647 | 33937 ft | 498 kts | 232° |
| 2026-04-20 07:12 | 5.61786 | -145.78995 | 33937 ft | 494 kts | 233° |
| 2026-04-20 07:12 | 5.57456 | -145.84365 | 33939 ft | 494 kts | 233° |
| 2026-04-20 07:13 | 5.53121 | -145.89739 | 33934 ft | 494 kts | 233° |
| 2026-04-20 07:13 | 5.48810 | -145.95082 | 33936 ft | 495 kts | 233° |
| 2026-04-20 07:14 | 5.44458 | -146.00475 | 33935 ft | 496 kts | 233° |
| 2026-04-20 07:14 | 5.40139 | -146.05825 | 33936 ft | 496 kts | 233° |
| 2026-04-20 07:15 | 5.35794 | -146.11206 | 33932 ft | 492 kts | 233° |
| 2026-04-20 07:15 | 5.31518 | -146.16500 | 33929 ft | 485 kts | 233° |
| 2026-04-20 07:16 | 5.27273 | -146.21756 | 33933 ft | 488 kts | 233° |
| 2026-04-20 07:16 | 5.22982 | -146.27065 | 33935 ft | 489 kts | 233° |
| 2026-04-20 07:17 | 5.18709 | -146.32354 | 33939 ft | 490 kts | 233° |
| 2026-04-20 07:17 | 5.14402 | -146.37680 | 33941 ft | 490 kts | 233° |
| 2026-04-20 07:18 | 5.10128 | -146.42966 | 33938 ft | 489 kts | 233° |
| 2026-04-20 07:18 | 5.05842 | -146.48265 | 33939 ft | 483 kts | 232° |
| 2026-04-20 07:19 | 5.01652 | -146.53444 | 33938 ft | 480 kts | 232° |
| 2026-04-20 07:19 | 4.97430 | -146.58662 | 33941 ft | 482 kts | 232° |
| 2026-04-20 07:20 | 4.93149 | -146.63787 | 33935 ft | 482 kts | 231° |
| 2026-04-20 07:20 | 4.88783 | -146.68916 | 33937 ft | 483 kts | 231° |
| 2026-04-20 07:21 | 4.84375 | -146.74024 | 33944 ft | 484 kts | 231° |
| 2026-04-20 07:21 | 4.80003 | -146.79118 | 33947 ft | 484 kts | 231° |
| 2026-04-20 07:22 | 4.75586 | -146.84253 | 33942 ft | 484 kts | 231° |
| 2026-04-20 07:22 | 4.71219 | -146.89331 | 33940 ft | 482 kts | 231° |
| 2026-04-20 07:23 | 4.66841 | -146.94422 | 33940 ft | 480 kts | 231° |
| 2026-04-20 07:23 | 4.62493 | -146.99475 | 33939 ft | 482 kts | 231° |
| 2026-04-20 07:24 | 4.58103 | -147.04577 | 33940 ft | 483 kts | 231° |
| 2026-04-20 07:24 | 4.53699 | -147.09693 | 33939 ft | 484 kts | 231° |
| 2026-04-20 07:25 | 4.49320 | -147.14780 | 33945 ft | 484 kts | 231° |
| 2026-04-20 07:25 | 4.44916 | -147.19895 | 33945 ft | 483 kts | 232° |
| 2026-04-20 07:26 | 4.40524 | -147.24995 | 33945 ft | 482 kts | 232° |
| 2026-04-20 07:26 | 4.36176 | -147.30042 | 33943 ft | 481 kts | 232° |
| 2026-04-20 07:27 | 4.31806 | -147.35115 | 33937 ft | 480 kts | 232° |
| 2026-04-20 07:27 | 4.27427 | -147.40197 | 33938 ft | 483 kts | 232° |
| 2026-04-20 07:28 | 4.23021 | -147.45309 | 33943 ft | 484 kts | 232° |
| 2026-04-20 07:28 | 4.18641 | -147.50390 | 33946 ft | 484 kts | 232° |
| 2026-04-20 07:29 | 4.14235 | -147.55500 | 33948 ft | 484 kts | 232° |
| 2026-04-20 07:29 | 4.09812 | -147.60628 | 33944 ft | 484 kts | 232° |
| 2026-04-20 07:30 | 4.05426 | -147.65713 | 33944 ft | 484 kts | 232° |
| 2026-04-20 07:30 | 4.01010 | -147.70833 | 33945 ft | 484 kts | 232° |
| 2026-04-20 07:31 | 3.96628 | -147.75911 | 33943 ft | 484 kts | 231° |
| 2026-04-20 07:31 | 3.92198 | -147.81044 | 33944 ft | 484 kts | 231° |
| 2026-04-20 07:32 | 3.87813 | -147.86124 | 33952 ft | 484 kts | 231° |
| 2026-04-20 07:32 | 3.83390 | -147.91249 | 33949 ft | 486 kts | 231° |
| 2026-04-20 07:33 | 3.78957 | -147.96382 | 33948 ft | 487 kts | 231° |
| 2026-04-20 07:33 | 3.74553 | -148.01483 | 33949 ft | 487 kts | 231° |
| 2026-04-20 07:34 | 3.70119 | -148.06615 | 33953 ft | 487 kts | 231° |
| 2026-04-20 07:34 | 3.65677 | -148.11758 | 33951 ft | 486 kts | 231° |
| 2026-04-20 07:35 | 3.59053 | -148.19424 | 33949 ft | 486 kts | 231° |
| 2026-04-20 07:35 | 3.54648 | -148.24521 | 33948 ft | 486 kts | 231° |
| 2026-04-20 07:36 | 3.50212 | -148.29653 | 33945 ft | 486 kts | 231° |
| 2026-04-20 07:36 | 3.45785 | -148.34774 | 33945 ft | 486 kts | 231° |
| 2026-04-20 07:37 | 3.41385 | -148.39863 | 33947 ft | 486 kts | 231° |
| 2026-04-20 07:37 | 3.36953 | -148.44987 | 33948 ft | 486 kts | 231° |
| 2026-04-20 07:38 | 3.32553 | -148.50075 | 33942 ft | 485 kts | 231° |
| 2026-04-20 07:38 | 3.28125 | -148.55194 | 33941 ft | 485 kts | 231° |
| 2026-04-20 07:39 | 3.23702 | -148.60307 | 33944 ft | 487 kts | 231° |
| 2026-04-20 07:39 | 3.19271 | -148.65427 | 33947 ft | 488 kts | 231° |
| 2026-04-20 07:40 | 3.14817 | -148.70574 | 33947 ft | 488 kts | 231° |
| 2026-04-20 07:40 | 3.10390 | -148.75689 | 33950 ft | 488 kts | 231° |
| 2026-04-20 07:41 | 3.05935 | -148.80836 | 33950 ft | 488 kts | 231° |
| 2026-04-20 07:41 | 3.01483 | -148.85977 | 33953 ft | 488 kts | 231° |
| 2026-04-20 07:42 | 2.97047 | -148.91101 | 33947 ft | 488 kts | 231° |
| 2026-04-20 07:42 | 2.92625 | -148.96207 | 33952 ft | 489 kts | 231° |
| 2026-04-20 07:43 | 2.88156 | -149.01367 | 33951 ft | 491 kts | 231° |
| 2026-04-20 07:43 | 2.83705 | -149.06504 | 33953 ft | 491 kts | 231° |
| 2026-04-20 07:44 | 2.79230 | -149.11671 | 33945 ft | 490 kts | 231° |
| 2026-04-20 07:44 | 2.74755 | -149.16835 | 33946 ft | 489 kts | 231° |
| 2026-04-20 07:45 | 2.70323 | -149.21949 | 33946 ft | 489 kts | 231° |
| 2026-04-20 07:45 | 2.65859 | -149.27101 | 33944 ft | 488 kts | 231° |
| 2026-04-20 07:46 | 2.61411 | -149.32232 | 33944 ft | 488 kts | 231° |
| 2026-04-20 07:46 | 2.56973 | -149.37352 | 33946 ft | 490 kts | 231° |
| 2026-04-20 07:47 | 2.52498 | -149.42514 | 33946 ft | 491 kts | 231° |
| 2026-04-20 07:47 | 2.48008 | -149.47692 | 33951 ft | 491 kts | 231° |
| 2026-04-20 07:48 | 2.43558 | -149.52824 | 33952 ft | 491 kts | 231° |
| 2026-04-20 07:48 | 2.39073 | -149.57995 | 33954 ft | 491 kts | 231° |
| 2026-04-20 07:49 | 2.34621 | -149.63128 | 33950 ft | 491 kts | 231° |
| 2026-04-20 07:49 | 2.30132 | -149.68303 | 33950 ft | 492 kts | 231° |
| 2026-04-20 07:50 | 2.25647 | -149.73472 | 33957 ft | 491 kts | 231° |
| 2026-04-20 07:50 | 2.21176 | -149.78625 | 33952 ft | 490 kts | 231° |
| 2026-04-20 07:51 | 2.17459 | -149.82909 | 33949 ft | 490 kts | 231° |
| 2026-04-20 07:51 | 2.12262 | -149.88898 | 33948 ft | 489 kts | 231° |
| 2026-04-20 07:52 | 2.07799 | -149.94041 | 33944 ft | 489 kts | 231° |
| 2026-04-20 07:52 | 2.04081 | -149.98324 | 33949 ft | 490 kts | 231° |
| 2026-04-20 07:53 | 1.98882 | -150.04314 | 33952 ft | 491 kts | 231° |
| 2026-04-20 07:53 | 1.95153 | -150.08609 | 33957 ft | 492 kts | 231° |
| 2026-04-20 07:54 | 1.90655 | -150.13789 | 33958 ft | 492 kts | 231° |
| 2026-04-20 07:54 | 1.86167 | -150.18959 | 33956 ft | 491 kts | 231° |
| 2026-04-20 07:55 | 1.81714 | -150.24087 | 33953 ft | 491 kts | 231° |
| 2026-04-20 07:55 | 1.77229 | -150.29252 | 33952 ft | 491 kts | 231° |
| 2026-04-20 07:56 | 1.72738 | -150.34423 | 33958 ft | 491 kts | 231° |
| 2026-04-20 07:56 | 1.68275 | -150.39561 | 33957 ft | 491 kts | 231° |
| 2026-04-20 07:57 | 1.63733 | -150.44699 | 33955 ft | 493 kts | 229° |
| 2026-04-20 07:57 | 1.59152 | -150.49808 | 33948 ft | 495 kts | 230° |
| 2026-04-20 07:58 | 1.54516 | -150.54914 | 33951 ft | 494 kts | 229° |
| 2026-04-20 07:58 | 1.49933 | -150.59980 | 33951 ft | 493 kts | 229° |
| 2026-04-20 07:59 | 1.45336 | -150.65062 | 33944 ft | 492 kts | 229° |
| 2026-04-20 07:59 | 1.40732 | -150.70145 | 33943 ft | 492 kts | 229° |
| 2026-04-20 08:00 | 1.36160 | -150.75199 | 33943 ft | 493 kts | 229° |
| 2026-04-20 08:00 | 1.31538 | -150.80302 | 33949 ft | 495 kts | 229° |
| 2026-04-20 08:01 | 1.26930 | -150.85394 | 33952 ft | 496 kts | 229° |
| 2026-04-20 08:01 | 1.22284 | -150.90525 | 33959 ft | 496 kts | 229° |
| 2026-04-20 08:02 | 1.17678 | -150.95613 | 33952 ft | 496 kts | 229° |
| 2026-04-20 08:02 | 1.13047 | -151.00727 | 33952 ft | 495 kts | 229° |
| 2026-04-20 08:03 | 1.08414 | -151.05844 | 33951 ft | 496 kts | 229° |
| 2026-04-20 08:03 | 1.03776 | -151.10966 | 33951 ft | 497 kts | 229° |
| 2026-04-20 08:04 | 0.99154 | -151.16070 | 33949 ft | 498 kts | 229° |
| 2026-04-20 08:04 | 0.94490 | -151.21219 | 33954 ft | 499 kts | 229° |
| 2026-04-20 08:05 | 0.89831 | -151.26363 | 33954 ft | 498 kts | 229° |
| 2026-04-20 08:05 | 0.85209 | -151.31467 | 33951 ft | 498 kts | 229° |
| 2026-04-20 08:06 | 0.80557 | -151.36603 | 33949 ft | 498 kts | 229° |
| 2026-04-20 08:06 | 0.75896 | -151.41749 | 33946 ft | 498 kts | 229° |
| 2026-04-20 08:07 | 0.71242 | -151.46887 | 33947 ft | 498 kts | 229° |
| 2026-04-20 08:07 | 0.66622 | -151.51987 | 33948 ft | 498 kts | 229° |
| 2026-04-20 08:08 | 0.61956 | -151.57138 | 33951 ft | 500 kts | 229° |
| 2026-04-20 08:08 | 0.57280 | -151.62300 | 33951 ft | 500 kts | 229° |
| 2026-04-20 08:09 | 0.52611 | -151.67454 | 33949 ft | 500 kts | 229° |
| 2026-04-20 08:09 | 0.47968 | -151.72579 | 33947 ft | 500 kts | 229° |
| 2026-04-20 08:10 | 0.43300 | -151.77732 | 33946 ft | 500 kts | 229° |
| 2026-04-20 08:10 | 0.38629 | -151.82887 | 33950 ft | 500 kts | 229° |
| 2026-04-20 08:11 | 0.33975 | -151.88025 | 33947 ft | 500 kts | 229° |
| 2026-04-20 08:11 | 0.29298 | -151.93186 | 33946 ft | 500 kts | 229° |
| 2026-04-20 08:12 | 0.24660 | -151.98306 | 33943 ft | 499 kts | 229° |
| 2026-04-20 08:12 | 0.19986 | -152.03464 | 33941 ft | 499 kts | 229° |
| 2026-04-20 08:13 | 0.15336 | -152.08597 | 33951 ft | 499 kts | 229° |
| 2026-04-20 08:13 | 0.10672 | -152.13744 | 33948 ft | 499 kts | 229° |
| 2026-04-20 08:14 | 0.06009 | -152.18892 | 33944 ft | 499 kts | 229° |
| 2026-04-20 08:14 | 0.01373 | -152.24008 | 33948 ft | 499 kts | 229° |
| 2026-04-20 08:15 | -0.03291 | -152.29156 | 33941 ft | 501 kts | 229° |
| 2026-04-20 08:15 | -0.07986 | -152.34337 | 33944 ft | 501 kts | 229° |
| 2026-04-20 08:16 | -0.12669 | -152.39507 | 33946 ft | 501 kts | 229° |
| 2026-04-20 08:16 | -0.17326 | -152.44646 | 33943 ft | 501 kts | 229° |
| 2026-04-20 08:17 | -0.22006 | -152.49811 | 33944 ft | 501 kts | 229° |
| 2026-04-20 08:17 | -0.26693 | -152.54984 | 33942 ft | 501 kts | 229° |
| 2026-04-20 08:18 | -0.31371 | -152.60148 | 33943 ft | 500 kts | 229° |
| 2026-04-20 08:18 | -0.36022 | -152.65282 | 33949 ft | 501 kts | 229° |
| 2026-04-20 08:19 | -0.40720 | -152.70467 | 33943 ft | 503 kts | 229° |
| 2026-04-20 08:19 | -0.45411 | -152.75646 | 33945 ft | 502 kts | 229° |
| 2026-04-20 08:20 | -0.50107 | -152.80828 | 33943 ft | 502 kts | 229° |
| 2026-04-20 08:20 | -0.54787 | -152.85995 | 33945 ft | 502 kts | 229° |
| 2026-04-20 08:21 | -0.59461 | -152.91154 | 33944 ft | 502 kts | 229° |
| 2026-04-20 08:21 | -0.64153 | -152.96335 | 33946 ft | 502 kts | 229° |
| 2026-04-20 08:22 | -0.68846 | -153.01515 | 33944 ft | 503 kts | 228° |
| 2026-04-20 08:22 | -0.73542 | -153.06699 | 33944 ft | 504 kts | 229° |
| 2026-04-20 08:23 | -0.78220 | -153.11863 | 33937 ft | 502 kts | 229° |
| 2026-04-20 08:23 | -0.82915 | -153.17047 | 33941 ft | 501 kts | 229° |
| 2026-04-20 08:24 | -0.87610 | -153.22231 | 33940 ft | 502 kts | 229° |
| 2026-04-20 08:24 | -0.92267 | -153.27373 | 33939 ft | 502 kts | 228° |
| 2026-04-20 08:25 | -0.96960 | -153.32555 | 33941 ft | 502 kts | 229° |
| 2026-04-20 08:25 | -1.01649 | -153.37732 | 33942 ft | 502 kts | 229° |
| 2026-04-20 08:26 | -1.06313 | -153.42883 | 33945 ft | 501 kts | 228° |
| 2026-04-20 08:26 | -1.11010 | -153.48069 | 33943 ft | 502 kts | 228° |
| 2026-04-20 08:27 | -1.15677 | -153.53224 | 33942 ft | 502 kts | 228° |
| 2026-04-20 08:27 | -1.20363 | -153.58399 | 33940 ft | 502 kts | 228° |
| 2026-04-20 08:28 | -1.25061 | -153.63588 | 33943 ft | 502 kts | 228° |
| 2026-04-20 08:28 | -1.29721 | -153.68735 | 33947 ft | 501 kts | 228° |
| 2026-04-20 08:29 | -1.34416 | -153.73922 | 33941 ft | 501 kts | 228° |
| 2026-04-20 08:29 | -1.39102 | -153.79099 | 33943 ft | 502 kts | 228° |
| 2026-04-20 08:30 | -1.43778 | -153.84264 | 33944 ft | 504 kts | 228° |
| 2026-04-20 08:30 | -1.48485 | -153.89465 | 33945 ft | 503 kts | 228° |
| 2026-04-20 08:31 | -1.53161 | -153.94632 | 33946 ft | 502 kts | 228° |
| 2026-04-20 08:31 | -1.57861 | -153.99826 | 33944 ft | 502 kts | 228° |
| 2026-04-20 08:32 | -1.62553 | -154.05010 | 33946 ft | 503 kts | 228° |
| 2026-04-20 08:32 | -1.67202 | -154.10148 | 33944 ft | 500 kts | 228° |
| 2026-04-20 08:33 | -1.74201 | -154.17885 | 33945 ft | 498 kts | 228° |
| 2026-04-20 08:34 | -1.78848 | -154.23021 | 33944 ft | 498 kts | 228° |
| 2026-04-20 08:34 | -1.83480 | -154.28141 | 33945 ft | 499 kts | 228° |
| 2026-04-20 08:35 | -1.88012 | -154.33397 | 33950 ft | 497 kts | 232° |
| 2026-04-20 08:35 | -1.92227 | -154.38851 | 33945 ft | 496 kts | 232° |
| 2026-04-20 08:36 | -1.96437 | -154.44282 | 33940 ft | 493 kts | 232° |
| 2026-04-20 08:36 | -2.00654 | -154.49735 | 33942 ft | 494 kts | 232° |
| 2026-04-20 08:37 | -2.04846 | -154.55149 | 33943 ft | 494 kts | 232° |
| 2026-04-20 08:37 | -2.09053 | -154.60587 | 33948 ft | 492 kts | 232° |
| 2026-04-20 08:38 | -2.13211 | -154.65959 | 33944 ft | 491 kts | 232° |
| 2026-04-20 08:38 | -2.17385 | -154.71354 | 33945 ft | 492 kts | 232° |
| 2026-04-20 08:39 | -2.21582 | -154.76779 | 33944 ft | 493 kts | 232° |
| 2026-04-20 08:39 | -2.25776 | -154.82200 | 33946 ft | 493 kts | 232° |
| 2026-04-20 08:40 | -2.29975 | -154.87629 | 33944 ft | 492 kts | 232° |
| 2026-04-20 08:40 | -2.34168 | -154.93051 | 33944 ft | 492 kts | 232° |
| 2026-04-20 08:41 | -2.38331 | -154.98435 | 33944 ft | 492 kts | 231° |
| 2026-04-20 08:41 | -2.42527 | -155.03861 | 33949 ft | 492 kts | 231° |
| 2026-04-20 08:42 | -2.46724 | -155.09288 | 33941 ft | 493 kts | 231° |
| 2026-04-20 08:42 | -2.50890 | -155.14678 | 33942 ft | 492 kts | 231° |
| 2026-04-20 08:43 | -2.55089 | -155.20110 | 33942 ft | 492 kts | 231° |
| 2026-04-20 08:43 | -2.59286 | -155.25541 | 33940 ft | 493 kts | 231° |
| 2026-04-20 08:44 | -2.62767 | -155.30045 | 33946 ft | 492 kts | 231° |
| 2026-04-20 08:44 | -2.66949 | -155.35457 | 33945 ft | 489 kts | 231° |
| 2026-04-20 08:45 | -2.71123 | -155.40860 | 33940 ft | 491 kts | 231° |
| 2026-04-20 08:45 | -2.75282 | -155.46243 | 33941 ft | 491 kts | 231° |
| 2026-04-20 08:46 | -2.79465 | -155.51658 | 33944 ft | 490 kts | 231° |
| 2026-04-20 08:46 | -2.83602 | -155.57015 | 33943 ft | 489 kts | 231° |
| 2026-04-20 08:47 | -2.87768 | -155.62410 | 33943 ft | 489 kts | 231° |
| 2026-04-20 08:47 | -2.91903 | -155.67765 | 33944 ft | 489 kts | 231° |
| 2026-04-20 08:48 | -2.96066 | -155.73158 | 33944 ft | 489 kts | 231° |
| 2026-04-20 08:48 | -3.00227 | -155.78549 | 33944 ft | 489 kts | 231° |
| 2026-04-20 08:49 | -3.04372 | -155.83920 | 33945 ft | 489 kts | 231° |
| 2026-04-20 08:49 | -3.08530 | -155.89308 | 33945 ft | 489 kts | 231° |
| 2026-04-20 08:50 | -3.12701 | -155.94714 | 33947 ft | 489 kts | 231° |
| 2026-04-20 08:50 | -3.16842 | -156.00081 | 33947 ft | 489 kts | 231° |
| 2026-04-20 08:51 | -3.21013 | -156.05489 | 33944 ft | 489 kts | 231° |
| 2026-04-20 08:51 | -3.25151 | -156.10855 | 33943 ft | 490 kts | 231° |
| 2026-04-20 08:52 | -3.29315 | -156.16254 | 33942 ft | 490 kts | 231° |
| 2026-04-20 08:52 | -3.33493 | -156.21674 | 33943 ft | 490 kts | 231° |
| 2026-04-20 08:53 | -3.37659 | -156.27077 | 33943 ft | 490 kts | 231° |
| 2026-04-20 08:53 | -3.41795 | -156.32443 | 33939 ft | 489 kts | 231° |
| 2026-04-20 08:54 | -3.45952 | -156.37838 | 33940 ft | 488 kts | 231° |
| 2026-04-20 08:54 | -3.50085 | -156.43201 | 33939 ft | 488 kts | 231° |
| 2026-04-20 08:55 | -3.54244 | -156.48600 | 33939 ft | 487 kts | 231° |
| 2026-04-20 08:55 | -3.58361 | -156.53945 | 33937 ft | 487 kts | 231° |
| 2026-04-20 08:56 | -3.62511 | -156.59334 | 33941 ft | 489 kts | 231° |
| 2026-04-20 08:56 | -3.66674 | -156.64740 | 33944 ft | 490 kts | 231° |
| 2026-04-20 08:57 | -3.70837 | -156.70148 | 33942 ft | 490 kts | 231° |
| 2026-04-20 08:57 | -3.75007 | -156.75566 | 33943 ft | 490 kts | 231° |
| 2026-04-20 08:58 | -3.79148 | -156.80947 | 33944 ft | 489 kts | 231° |
| 2026-04-20 08:58 | -3.83284 | -156.86322 | 33943 ft | 489 kts | 231° |
| 2026-04-20 08:59 | -3.87440 | -156.91724 | 33935 ft | 489 kts | 231° |
| 2026-04-20 08:59 | -3.91590 | -156.97119 | 33934 ft | 488 kts | 231° |
| 2026-04-20 09:00 | -3.95714 | -157.02482 | 33936 ft | 488 kts | 231° |
| 2026-04-20 09:00 | -3.99868 | -157.07884 | 33936 ft | 488 kts | 231° |
| 2026-04-20 09:01 | -4.04011 | -157.13274 | 33937 ft | 488 kts | 231° |
| 2026-04-20 09:01 | -4.08133 | -157.18636 | 33937 ft | 487 kts | 231° |
| 2026-04-20 09:02 | -4.12256 | -157.24002 | 33937 ft | 488 kts | 231° |
| 2026-04-20 09:02 | -4.16401 | -157.29397 | 33938 ft | 488 kts | 231° |
| 2026-04-20 09:03 | -4.20545 | -157.34791 | 33942 ft | 488 kts | 231° |
| 2026-04-20 09:03 | -4.24659 | -157.40148 | 33944 ft | 485 kts | 231° |
| 2026-04-20 09:04 | -4.28789 | -157.45526 | 33945 ft | 485 kts | 231° |
| 2026-04-20 09:04 | -4.32889 | -157.50867 | 33946 ft | 486 kts | 231° |
| 2026-04-20 09:05 | -4.37025 | -157.56255 | 33946 ft | 486 kts | 231° |
| 2026-04-20 09:05 | -4.41132 | -157.61607 | 33947 ft | 487 kts | 231° |
| 2026-04-20 09:06 | -4.45268 | -157.66999 | 33945 ft | 488 kts | 231° |
| 2026-04-20 09:06 | -4.49417 | -157.72407 | 33948 ft | 488 kts | 231° |
| 2026-04-20 09:07 | -4.53525 | -157.77764 | 33944 ft | 487 kts | 231° |
| 2026-04-20 09:07 | -4.57659 | -157.83154 | 33943 ft | 486 kts | 231° |
| 2026-04-20 09:08 | -4.61769 | -157.88516 | 33941 ft | 483 kts | 231° |
| 2026-04-20 09:08 | -4.65853 | -157.93845 | 33942 ft | 484 kts | 231° |
| 2026-04-20 09:09 | -4.69945 | -157.99185 | 33950 ft | 485 kts | 231° |
| 2026-04-20 09:09 | -4.74061 | -158.04558 | 33951 ft | 486 kts | 231° |
| 2026-04-20 09:10 | -4.78163 | -158.09912 | 33951 ft | 486 kts | 231° |
| 2026-04-20 09:10 | -4.82290 | -158.15303 | 33953 ft | 486 kts | 231° |
| 2026-04-20 09:11 | -4.86394 | -158.20648 | 33944 ft | 485 kts | 231° |
| 2026-04-20 09:11 | -4.90521 | -158.26002 | 33942 ft | 484 kts | 231° |
| 2026-04-20 09:12 | -4.94641 | -158.31365 | 33949 ft | 484 kts | 231° |
| 2026-04-20 09:12 | -4.98730 | -158.36678 | 33943 ft | 482 kts | 231° |
| 2026-04-20 09:13 | -5.02803 | -158.42037 | 33941 ft | 482 kts | 232° |
| 2026-04-20 09:13 | -5.06798 | -158.47409 | 33941 ft | 483 kts | 231° |
| 2026-04-20 09:14 | -5.10861 | -158.52799 | 33948 ft | 483 kts | 231° |
| 2026-04-20 09:14 | -5.14907 | -158.58209 | 33949 ft | 485 kts | 231° |
| 2026-04-20 09:15 | -5.18961 | -158.63608 | 33950 ft | 486 kts | 231° |
| 2026-04-20 09:15 | -5.23018 | -158.69025 | 33948 ft | 485 kts | 231° |
| 2026-04-20 09:16 | -5.27075 | -158.74438 | 33946 ft | 483 kts | 231° |
| 2026-04-20 09:16 | -5.31095 | -158.79804 | 33943 ft | 483 kts | 231° |
| 2026-04-20 09:17 | -5.35134 | -158.85197 | 33940 ft | 482 kts | 231° |
| 2026-04-20 09:17 | -5.39180 | -158.90600 | 33945 ft | 485 kts | 231° |
| 2026-04-20 09:18 | -5.43229 | -158.96009 | 33948 ft | 486 kts | 231° |
| 2026-04-20 09:18 | -5.47277 | -159.01418 | 33950 ft | 486 kts | 231° |
| 2026-04-20 09:19 | -5.51338 | -159.06845 | 33954 ft | 486 kts | 231° |
| 2026-04-20 09:19 | -5.55410 | -159.12289 | 33955 ft | 486 kts | 231° |
| 2026-04-20 09:20 | -5.59443 | -159.17682 | 33954 ft | 486 kts | 231° |
| 2026-04-20 09:20 | -5.63509 | -159.23120 | 33955 ft | 487 kts | 231° |
| 2026-04-20 09:21 | -5.67578 | -159.28564 | 33947 ft | 487 kts | 231° |
| 2026-04-20 09:21 | -5.71626 | -159.33980 | 33952 ft | 487 kts | 231° |
| 2026-04-20 09:22 | -5.75706 | -159.39443 | 33952 ft | 488 kts | 231° |
| 2026-04-20 09:22 | -5.79765 | -159.44878 | 33953 ft | 487 kts | 231° |
| 2026-04-20 09:23 | -5.83831 | -159.50322 | 33949 ft | 486 kts | 231° |
| 2026-04-20 09:23 | -5.87897 | -159.55771 | 33944 ft | 487 kts | 231° |
| 2026-04-20 09:24 | -5.91951 | -159.61202 | 33948 ft | 488 kts | 231° |
| 2026-04-20 09:24 | -5.96004 | -159.66636 | 33947 ft | 489 kts | 231° |
| 2026-04-20 09:25 | -6.00093 | -159.72118 | 33946 ft | 489 kts | 231° |
| 2026-04-20 09:25 | -6.04174 | -159.77592 | 33946 ft | 488 kts | 231° |
| 2026-04-20 09:26 | -6.08229 | -159.83032 | 33949 ft | 488 kts | 231° |
| 2026-04-20 09:26 | -6.12311 | -159.88509 | 33949 ft | 490 kts | 231° |
| 2026-04-20 09:27 | -6.16382 | -159.93974 | 33949 ft | 490 kts | 231° |
| 2026-04-20 09:27 | -6.20468 | -159.99461 | 33949 ft | 489 kts | 231° |
| 2026-04-20 09:28 | -6.24523 | -160.04907 | 33945 ft | 488 kts | 231° |
| 2026-04-20 09:28 | -6.28593 | -160.10374 | 33943 ft | 488 kts | 231° |
| 2026-04-20 09:29 | -6.32648 | -160.15824 | 33944 ft | 488 kts | 231° |
| 2026-04-20 09:29 | -6.36723 | -160.21303 | 33942 ft | 489 kts | 231° |
| 2026-04-20 09:30 | -6.40812 | -160.26800 | 33946 ft | 491 kts | 231° |
| 2026-04-20 09:30 | -6.44908 | -160.32311 | 33946 ft | 491 kts | 231° |
| 2026-04-20 09:31 | -6.48955 | -160.37756 | 33950 ft | 487 kts | 231° |
| 2026-04-20 09:31 | -6.53012 | -160.43216 | 33947 ft | 487 kts | 231° |
| 2026-04-20 09:32 | -6.57066 | -160.48675 | 33947 ft | 486 kts | 231° |
| 2026-04-20 09:32 | -6.61099 | -160.54106 | 33946 ft | 486 kts | 231° |
| 2026-04-20 09:33 | -6.65152 | -160.59567 | 33946 ft | 486 kts | 231° |
| 2026-04-20 09:33 | -6.69177 | -160.64991 | 33947 ft | 487 kts | 231° |
| 2026-04-20 09:34 | -6.73234 | -160.70460 | 33950 ft | 488 kts | 231° |
| 2026-04-20 09:34 | -6.79342 | -160.78697 | 33956 ft | 489 kts | 231° |
| 2026-04-20 09:35 | -6.83385 | -160.84152 | 33956 ft | 487 kts | 231° |
| 2026-04-20 09:35 | -6.87449 | -160.89636 | 33953 ft | 486 kts | 231° |
| 2026-04-20 09:36 | -6.91464 | -160.95056 | 33952 ft | 485 kts | 231° |
| 2026-04-20 09:36 | -6.94818 | -160.99585 | 33951 ft | 485 kts | 231° |
| 2026-04-20 09:37 | -6.98858 | -161.05043 | 33952 ft | 486 kts | 231° |
| 2026-04-20 09:37 | -7.02905 | -161.10511 | 33953 ft | 487 kts | 231° |
| 2026-04-20 09:38 | -7.07624 | -161.16889 | 33956 ft | 488 kts | 231° |
| 2026-04-20 09:38 | -7.11000 | -161.21454 | 33957 ft | 488 kts | 231° |
| 2026-04-20 09:39 | -7.15059 | -161.26944 | 33959 ft | 488 kts | 231° |
| 2026-04-20 09:39 | -7.19114 | -161.32431 | 33954 ft | 488 kts | 231° |
| 2026-04-20 09:40 | -7.23123 | -161.37858 | 33951 ft | 483 kts | 231° |
| 2026-04-20 09:40 | -7.27138 | -161.43293 | 33948 ft | 483 kts | 231° |
| 2026-04-20 09:41 | -7.31156 | -161.48736 | 33945 ft | 483 kts | 231° |
| 2026-04-20 09:41 | -7.35148 | -161.54144 | 33946 ft | 484 kts | 231° |
| 2026-04-20 09:42 | -7.39180 | -161.59609 | 33950 ft | 484 kts | 231° |
| 2026-04-20 09:42 | -7.43181 | -161.65033 | 33952 ft | 485 kts | 231° |
| 2026-04-20 09:43 | -7.47209 | -161.70496 | 33950 ft | 486 kts | 231° |
| 2026-04-20 09:43 | -7.51255 | -161.75985 | 33950 ft | 486 kts | 231° |
| 2026-04-20 09:44 | -7.55264 | -161.81427 | 33952 ft | 485 kts | 231° |
| 2026-04-20 09:44 | -7.59298 | -161.86883 | 33954 ft | 482 kts | 230° |
| 2026-04-20 09:45 | -7.63306 | -161.92248 | 33947 ft | 481 kts | 230° |
| 2026-04-20 09:45 | -7.67329 | -161.97672 | 33946 ft | 483 kts | 230° |
| 2026-04-20 09:46 | -7.71370 | -162.03103 | 33947 ft | 483 kts | 230° |
| 2026-04-20 09:46 | -7.75384 | -162.08509 | 33948 ft | 484 kts | 230° |
| 2026-04-20 09:47 | -7.79422 | -162.13945 | 33952 ft | 483 kts | 230° |
| 2026-04-20 09:47 | -7.83436 | -162.19353 | 33949 ft | 483 kts | 230° |
| 2026-04-20 09:48 | -7.87469 | -162.24786 | 33945 ft | 482 kts | 230° |
| 2026-04-20 09:48 | -7.91469 | -162.30178 | 33945 ft | 483 kts | 230° |
| 2026-04-20 09:49 | -7.95502 | -162.35615 | 33948 ft | 483 kts | 230° |
| 2026-04-20 09:49 | -7.99532 | -162.41052 | 33948 ft | 482 kts | 230° |
| 2026-04-20 09:50 | -8.03552 | -162.46476 | 33945 ft | 481 kts | 230° |
| 2026-04-20 09:50 | -8.07544 | -162.51866 | 33943 ft | 481 kts | 230° |
| 2026-04-20 09:51 | -8.11559 | -162.57288 | 33944 ft | 482 kts | 230° |
| 2026-04-20 09:51 | -8.15560 | -162.62693 | 33944 ft | 483 kts | 230° |
| 2026-04-20 09:52 | -8.19571 | -162.68114 | 33946 ft | 484 kts | 231° |
| 2026-04-20 09:52 | -8.23605 | -162.73567 | 33947 ft | 484 kts | 231° |
| 2026-04-20 09:53 | -8.27636 | -162.79020 | 33945 ft | 484 kts | 231° |
| 2026-04-20 09:53 | -8.31638 | -162.84434 | 33945 ft | 484 kts | 231° |
| 2026-04-20 09:54 | -8.35669 | -162.89892 | 33948 ft | 483 kts | 230° |
| 2026-04-20 09:54 | -8.39672 | -162.95311 | 33948 ft | 482 kts | 230° |
| 2026-04-20 09:55 | -8.43690 | -163.00754 | 33942 ft | 483 kts | 230° |
| 2026-04-20 09:55 | -8.47725 | -163.06222 | 33942 ft | 484 kts | 230° |
| 2026-04-20 09:56 | -8.51756 | -163.11687 | 33950 ft | 484 kts | 230° |
| 2026-04-20 09:56 | -8.55756 | -163.17113 | 33949 ft | 483 kts | 230° |
| 2026-04-20 09:57 | -8.59776 | -163.22567 | 33943 ft | 483 kts | 231° |
| 2026-04-20 09:57 | -8.63768 | -163.27985 | 33942 ft | 482 kts | 231° |
| 2026-04-20 09:58 | -8.67780 | -163.33432 | 33940 ft | 483 kts | 231° |
| 2026-04-20 09:58 | -8.71812 | -163.38910 | 33943 ft | 485 kts | 231° |
| 2026-04-20 09:59 | -8.75815 | -163.44350 | 33941 ft | 484 kts | 230° |
| 2026-04-20 09:59 | -8.79842 | -163.49825 | 33942 ft | 484 kts | 230° |
| 2026-04-20 10:00 | -8.83860 | -163.55290 | 33941 ft | 483 kts | 230° |
| 2026-04-20 10:00 | -8.87856 | -163.60727 | 33940 ft | 483 kts | 230° |
| 2026-04-20 10:01 | -8.91866 | -163.66185 | 33936 ft | 483 kts | 231° |
| 2026-04-20 10:01 | -8.95862 | -163.71626 | 33937 ft | 484 kts | 231° |
| 2026-04-20 10:02 | -8.99892 | -163.77118 | 33940 ft | 485 kts | 231° |
| 2026-04-20 10:02 | -9.03917 | -163.82604 | 33937 ft | 485 kts | 231° |
| 2026-04-20 10:03 | -9.07912 | -163.88051 | 33933 ft | 484 kts | 231° |
| 2026-04-20 10:03 | -9.11928 | -163.93530 | 33933 ft | 485 kts | 230° |
| 2026-04-20 10:04 | -9.15958 | -163.99028 | 33936 ft | 485 kts | 230° |
| 2026-04-20 10:04 | -9.19955 | -164.04486 | 33934 ft | 486 kts | 231° |
| 2026-04-20 10:05 | -9.23984 | -164.09989 | 33935 ft | 486 kts | 231° |
| 2026-04-20 10:05 | -9.28009 | -164.15489 | 33933 ft | 485 kts | 231° |
| 2026-04-20 10:06 | -9.32027 | -164.20982 | 33934 ft | 484 kts | 231° |
| 2026-04-20 10:06 | -9.36009 | -164.26429 | 33932 ft | 484 kts | 231° |
| 2026-04-20 10:07 | -9.40027 | -164.31926 | 33926 ft | 483 kts | 231° |
| 2026-04-20 10:07 | -9.44025 | -164.37398 | 33925 ft | 483 kts | 231° |
| 2026-04-20 10:08 | -9.48008 | -164.42854 | 33930 ft | 484 kts | 231° |
| 2026-04-20 10:08 | -9.52029 | -164.48362 | 33927 ft | 486 kts | 231° |
| 2026-04-20 10:09 | -9.56033 | -164.53851 | 33927 ft | 487 kts | 231° |
| 2026-04-20 10:09 | -9.60062 | -164.59377 | 33930 ft | 486 kts | 230° |
| 2026-04-20 10:10 | -9.64081 | -164.64890 | 33928 ft | 485 kts | 231° |
| 2026-04-20 10:10 | -9.68060 | -164.70352 | 33926 ft | 484 kts | 231° |
| 2026-04-20 10:11 | -9.72069 | -164.75857 | 33926 ft | 483 kts | 231° |
| 2026-04-20 10:11 | -9.76045 | -164.81319 | 33926 ft | 483 kts | 231° |
| 2026-04-20 10:12 | -9.80039 | -164.86809 | 33927 ft | 482 kts | 231° |
| 2026-04-20 10:12 | -9.84006 | -164.92263 | 33928 ft | 483 kts | 231° |
| 2026-04-20 10:13 | -9.88009 | -164.97771 | 33924 ft | 484 kts | 230° |
| 2026-04-20 10:13 | -9.92018 | -165.03288 | 33925 ft | 485 kts | 230° |
| 2026-04-20 10:14 | -9.96025 | -165.08807 | 33924 ft | 486 kts | 231° |
| 2026-04-20 10:14 | -10.00011 | -165.14299 | 33925 ft | 486 kts | 231° |
| 2026-04-20 10:15 | -10.04022 | -165.19827 | 33928 ft | 486 kts | 231° |
| 2026-04-20 10:15 | -10.08028 | -165.25350 | 33929 ft | 485 kts | 231° |
| 2026-04-20 10:16 | -10.12028 | -165.30869 | 33925 ft | 485 kts | 231° |
| 2026-04-20 10:16 | -10.16005 | -165.36359 | 33925 ft | 485 kts | 231° |
| 2026-04-20 10:17 | -10.20003 | -165.41880 | 33926 ft | 484 kts | 231° |
| 2026-04-20 10:17 | -10.24005 | -165.47409 | 33926 ft | 484 kts | 231° |
| 2026-04-20 10:18 | -10.27975 | -165.52897 | 33924 ft | 485 kts | 231° |
| 2026-04-20 10:18 | -10.31988 | -165.58446 | 33924 ft | 486 kts | 231° |
| 2026-04-20 10:19 | -10.35970 | -165.63956 | 33936 ft | 486 kts | 231° |
| 2026-04-20 10:19 | -10.39977 | -165.69504 | 33936 ft | 487 kts | 231° |
| 2026-04-20 10:20 | -10.43977 | -165.75043 | 33932 ft | 486 kts | 231° |
| 2026-04-20 10:20 | -10.47975 | -165.80584 | 33932 ft | 485 kts | 231° |
| 2026-04-20 10:21 | -10.51958 | -165.86106 | 33935 ft | 484 kts | 231° |
| 2026-04-20 10:21 | -10.55916 | -165.91595 | 33927 ft | 483 kts | 231° |
| 2026-04-20 10:22 | -10.59887 | -165.97106 | 33920 ft | 483 kts | 231° |
| 2026-04-20 10:22 | -10.63865 | -166.02629 | 33921 ft | 485 kts | 231° |
| 2026-04-20 10:23 | -10.67861 | -166.08180 | 33927 ft | 486 kts | 231° |
| 2026-04-20 10:23 | -10.71832 | -166.13700 | 33930 ft | 486 kts | 231° |
| 2026-04-20 10:24 | -10.75831 | -166.19261 | 33926 ft | 485 kts | 231° |
| 2026-04-20 10:24 | -10.79787 | -166.24765 | 33924 ft | 484 kts | 231° |
| 2026-04-20 10:25 | -10.83763 | -166.30299 | 33922 ft | 483 kts | 231° |
| 2026-04-20 10:25 | -10.87705 | -166.35789 | 33921 ft | 483 kts | 231° |
| 2026-04-20 10:26 | -10.91696 | -166.41309 | 33922 ft | 484 kts | 231° |
| 2026-04-20 10:26 | -10.95716 | -166.46839 | 33927 ft | 485 kts | 231° |
| 2026-04-20 10:27 | -10.99702 | -166.52349 | 33926 ft | 486 kts | 231° |
| 2026-04-20 10:27 | -11.03725 | -166.57897 | 33923 ft | 486 kts | 231° |
| 2026-04-20 10:28 | -11.07062 | -166.62511 | 33924 ft | 485 kts | 231° |
| 2026-04-20 10:28 | -11.11070 | -166.68048 | 33924 ft | 485 kts | 231° |
| 2026-04-20 10:29 | -11.15070 | -166.73579 | 33925 ft | 484 kts | 231° |
| 2026-04-20 10:29 | -11.19049 | -166.79083 | 33922 ft | 484 kts | 231° |
| 2026-04-20 10:30 | -11.23041 | -166.84610 | 33921 ft | 484 kts | 231° |
| 2026-04-20 10:30 | -11.27036 | -166.90142 | 33924 ft | 484 kts | 231° |
| 2026-04-20 10:31 | -11.31013 | -166.95652 | 33926 ft | 485 kts | 231° |
| 2026-04-20 10:31 | -11.35018 | -167.01205 | 33929 ft | 486 kts | 231° |
| 2026-04-20 10:32 | -11.39030 | -167.06769 | 33923 ft | 486 kts | 231° |
| 2026-04-20 10:32 | -11.42998 | -167.12277 | 33927 ft | 484 kts | 231° |
| 2026-04-20 10:33 | -11.46984 | -167.17813 | 33926 ft | 482 kts | 231° |
| 2026-04-20 10:33 | -11.50962 | -167.23339 | 33927 ft | 483 kts | 231° |
| 2026-04-20 10:34 | -11.54915 | -167.28835 | 33940 ft | 482 kts | 231° |
| 2026-04-20 10:35 | -11.60878 | -167.37129 | 33941 ft | 482 kts | 231° |
| 2026-04-20 10:35 | -11.64820 | -167.42618 | 33927 ft | 481 kts | 231° |
| 2026-04-20 10:36 | -11.68782 | -167.48135 | 33924 ft | 482 kts | 231° |
| 2026-04-20 10:36 | -11.72753 | -167.53669 | 33937 ft | 483 kts | 231° |
| 2026-04-20 10:37 | -11.76711 | -167.59188 | 33937 ft | 485 kts | 231° |
| 2026-04-20 10:37 | -11.80667 | -167.64708 | 33937 ft | 477 kts | 232° |
| 2026-04-20 10:38 | -11.84566 | -167.70150 | 33937 ft | 477 kts | 232° |
| 2026-04-20 10:38 | -11.88494 | -167.75636 | 33940 ft | 478 kts | 232° |
| 2026-04-20 10:39 | -11.92433 | -167.81140 | 33943 ft | 479 kts | 232° |
| 2026-04-20 10:39 | -11.96348 | -167.86614 | 33945 ft | 479 kts | 232° |
| 2026-04-20 10:40 | -12.00283 | -167.92120 | 33941 ft | 479 kts | 232° |
| 2026-04-20 10:40 | -12.04218 | -167.97627 | 33942 ft | 479 kts | 232° |
| 2026-04-20 10:41 | -12.08120 | -168.03094 | 33937 ft | 476 kts | 232° |
| 2026-04-20 10:41 | -12.12032 | -168.08575 | 33925 ft | 476 kts | 232° |
| 2026-04-20 10:42 | -12.15912 | -168.14015 | 33926 ft | 475 kts | 232° |
| 2026-04-20 10:42 | -12.19815 | -168.19493 | 33925 ft | 474 kts | 232° |
| 2026-04-20 10:43 | -12.23684 | -168.24922 | 33927 ft | 475 kts | 232° |
| 2026-04-20 10:43 | -12.27576 | -168.30390 | 33940 ft | 475 kts | 232° |
| 2026-04-20 10:44 | -12.31454 | -168.35840 | 33926 ft | 476 kts | 232° |
| 2026-04-20 10:44 | -12.35365 | -168.41340 | 33939 ft | 477 kts | 232° |
| 2026-04-20 10:45 | -12.39272 | -168.46837 | 33924 ft | 477 kts | 232° |
| 2026-04-20 10:45 | -12.43144 | -168.52288 | 33925 ft | 476 kts | 232° |
| 2026-04-20 10:46 | -12.47041 | -168.57777 | 33924 ft | 475 kts | 232° |
| 2026-04-20 10:46 | -12.50938 | -168.63270 | 33921 ft | 475 kts | 232° |
| 2026-04-20 10:47 | -12.54792 | -168.68705 | 33926 ft | 474 kts | 233° |
| 2026-04-20 10:47 | -12.58694 | -168.74211 | 33929 ft | 479 kts | 233° |
| 2026-04-20 10:48 | -12.62588 | -168.79710 | 33928 ft | 478 kts | 233° |
| 2026-04-20 10:48 | -12.66489 | -168.85221 | 33927 ft | 476 kts | 233° |
| 2026-04-20 10:49 | -12.70379 | -168.90721 | 33926 ft | 476 kts | 233° |
| 2026-04-20 10:49 | -12.74253 | -168.96201 | 33932 ft | 477 kts | 233° |
| 2026-04-20 10:50 | -12.78130 | -169.01688 | 33931 ft | 478 kts | 233° |
| 2026-04-20 10:50 | -12.82041 | -169.07226 | 33932 ft | 479 kts | 233° |
| 2026-04-20 10:51 | -12.85953 | -169.12770 | 33934 ft | 479 kts | 233° |
| 2026-04-20 10:51 | -12.89838 | -169.18278 | 33932 ft | 478 kts | 233° |
| 2026-04-20 10:52 | -12.93741 | -169.23815 | 33934 ft | 478 kts | 233° |
| 2026-04-20 10:52 | -12.97644 | -169.29357 | 33932 ft | 478 kts | 233° |
| 2026-04-20 10:53 | -13.01520 | -169.34863 | 33934 ft | 478 kts | 233° |
| 2026-04-20 10:53 | -13.05420 | -169.40406 | 33936 ft | 478 kts | 233° |
| 2026-04-20 10:54 | -13.09320 | -169.45953 | 33929 ft | 479 kts | 233° |
| 2026-04-20 10:54 | -13.13217 | -169.51497 | 33932 ft | 478 kts | 232° |
| 2026-04-20 10:55 | -13.17267 | -169.56863 | 33931 ft | 478 kts | 232° |
| 2026-04-20 10:55 | -13.21323 | -169.62288 | 33930 ft | 478 kts | 231° |
| 2026-04-20 10:56 | -13.25371 | -169.67640 | 33930 ft | 478 kts | 231° |
| 2026-04-20 10:56 | -13.29435 | -169.73060 | 33934 ft | 478 kts | 231° |
| 2026-04-20 10:57 | -13.33514 | -169.78477 | 33950 ft | 479 kts | 231° |
| 2026-04-20 10:57 | -13.37563 | -169.83873 | 33947 ft | 479 kts | 231° |
| 2026-04-20 10:58 | -13.41647 | -169.89311 | 33942 ft | 480 kts | 231° |
| 2026-04-20 10:58 | -13.45720 | -169.94740 | 33930 ft | 479 kts | 231° |
| 2026-04-20 10:59 | -13.49766 | -170.00137 | 33931 ft | 479 kts | 231° |
| 2026-04-20 10:59 | -13.53835 | -170.05566 | 33931 ft | 478 kts | 231° |
| 2026-04-20 11:00 | -13.57902 | -170.10998 | 33945 ft | 479 kts | 231° |
| 2026-04-20 11:00 | -13.61942 | -170.16397 | 33947 ft | 479 kts | 231° |
| 2026-04-20 11:01 | -13.66030 | -170.21863 | 33952 ft | 483 kts | 231° |
| 2026-04-20 11:01 | -13.70118 | -170.27333 | 33951 ft | 485 kts | 231° |
| 2026-04-20 11:02 | -13.74230 | -170.32838 | 33942 ft | 484 kts | 231° |
| 2026-04-20 11:02 | -13.78304 | -170.38296 | 33943 ft | 482 kts | 231° |
| 2026-04-20 11:03 | -13.82382 | -170.43762 | 33947 ft | 481 kts | 231° |
| 2026-04-20 11:03 | -13.86472 | -170.49249 | 33943 ft | 482 kts | 231° |
| 2026-04-20 11:04 | -13.90559 | -170.54736 | 33941 ft | 483 kts | 231° |
| 2026-04-20 11:04 | -13.94631 | -170.60205 | 33941 ft | 482 kts | 231° |
| 2026-04-20 11:05 | -13.98711 | -170.65688 | 33942 ft | 481 kts | 231° |
| 2026-04-20 11:05 | -14.02782 | -170.71164 | 33934 ft | 480 kts | 231° |
| 2026-04-20 11:06 | -14.06816 | -170.76593 | 33943 ft | 479 kts | 231° |
| 2026-04-20 11:06 | -14.10868 | -170.82049 | 33948 ft | 479 kts | 231° |
| 2026-04-20 11:07 | -14.14934 | -170.87528 | 33950 ft | 479 kts | 231° |
| 2026-04-20 11:07 | -14.18973 | -170.92974 | 33930 ft | 479 kts | 231° |
| 2026-04-20 11:08 | -14.23011 | -170.98424 | 33940 ft | 477 kts | 231° |
| 2026-04-20 11:08 | -14.27026 | -171.03845 | 33945 ft | 478 kts | 231° |
| 2026-04-20 11:09 | -14.31075 | -171.09315 | 33926 ft | 480 kts | 231° |
| 2026-04-20 11:09 | -14.35103 | -171.14762 | 33929 ft | 479 kts | 231° |
| 2026-04-20 11:10 | -14.39151 | -171.20239 | 33942 ft | 478 kts | 231° |
| 2026-04-20 11:10 | -14.43183 | -171.25698 | 33925 ft | 477 kts | 231° |
| 2026-04-20 11:11 | -14.47184 | -171.31119 | 33929 ft | 477 kts | 231° |
| 2026-04-20 11:11 | -14.51202 | -171.36566 | 33928 ft | 476 kts | 231° |
| 2026-04-20 11:12 | -14.55221 | -171.42018 | 33932 ft | 478 kts | 231° |
| 2026-04-20 11:12 | -14.59231 | -171.47461 | 33931 ft | 479 kts | 231° |
| 2026-04-20 11:13 | -14.63266 | -171.52943 | 33927 ft | 479 kts | 231° |
| 2026-04-20 11:13 | -14.67299 | -171.58424 | 33928 ft | 478 kts | 231° |
| 2026-04-20 11:14 | -14.71318 | -171.63892 | 33927 ft | 476 kts | 231° |
| 2026-04-20 11:14 | -14.75299 | -171.69311 | 33923 ft | 475 kts | 231° |
| 2026-04-20 11:15 | -14.79293 | -171.74751 | 33927 ft | 475 kts | 231° |
| 2026-04-20 11:15 | -14.83306 | -171.80222 | 33950 ft | 483 kts | 231° |
| 2026-04-20 11:16 | -14.87413 | -171.85824 | 34167 ft | 490 kts | 232° |
| 2026-04-20 11:16 | -14.89469 | -171.88631 | 34452 ft | 489 kts | 232° |
| 2026-04-20 11:16 | -14.91521 | -171.91433 | 34746 ft | 488 kts | 232° |
| 2026-04-20 11:16 | -14.93571 | -171.94231 | 35023 ft | 487 kts | 232° |
| 2026-04-20 11:17 | -14.95612 | -171.97021 | 35321 ft | 486 kts | 232° |
| 2026-04-20 11:17 | -14.97650 | -171.99806 | 35591 ft | 485 kts | 232° |
| 2026-04-20 11:17 | -14.99655 | -172.02547 | 35855 ft | 484 kts | 232° |
| 2026-04-20 11:18 | -15.03743 | -172.08139 | 35922 ft | 488 kts | 232° |
| 2026-04-20 11:18 | -15.07811 | -172.13709 | 35923 ft | 483 kts | 232° |
| 2026-04-20 11:19 | -15.11861 | -172.19257 | 35926 ft | 483 kts | 232° |
| 2026-04-20 11:19 | -15.15908 | -172.24805 | 35929 ft | 483 kts | 232° |
| 2026-04-20 11:20 | -15.19262 | -172.29407 | 35929 ft | 481 kts | 232° |
| 2026-04-20 11:20 | -15.23291 | -172.34937 | 35926 ft | 481 kts | 232° |
| 2026-04-20 11:21 | -15.27323 | -172.40476 | 35927 ft | 481 kts | 232° |
| 2026-04-20 11:21 | -15.31355 | -172.46018 | 35924 ft | 481 kts | 232° |
| 2026-04-20 11:22 | -15.35375 | -172.51548 | 35925 ft | 480 kts | 232° |
| 2026-04-20 11:22 | -15.39389 | -172.57075 | 35924 ft | 480 kts | 232° |
| 2026-04-20 11:23 | -15.43396 | -172.62595 | 35923 ft | 479 kts | 232° |
| 2026-04-20 11:23 | -15.47409 | -172.68127 | 35926 ft | 481 kts | 232° |
| 2026-04-20 11:24 | -15.51438 | -172.73686 | 35931 ft | 483 kts | 232° |
| 2026-04-20 11:24 | -15.55448 | -172.79224 | 35940 ft | 481 kts | 232° |
| 2026-04-20 11:25 | -15.59460 | -172.84766 | 35936 ft | 479 kts | 232° |
| 2026-04-20 11:25 | -15.63465 | -172.90304 | 35931 ft | 479 kts | 232° |
| 2026-04-20 11:26 | -15.67441 | -172.95807 | 35933 ft | 479 kts | 232° |
| 2026-04-20 11:26 | -15.71440 | -173.01344 | 35935 ft | 479 kts | 232° |
| 2026-04-20 11:27 | -15.75443 | -173.06891 | 35934 ft | 479 kts | 232° |
| 2026-04-20 11:27 | -15.79413 | -173.12398 | 35934 ft | 479 kts | 232° |
| 2026-04-20 11:28 | -15.83410 | -173.17945 | 35935 ft | 479 kts | 232° |
| 2026-04-20 11:28 | -15.87411 | -173.23502 | 35935 ft | 479 kts | 232° |
| 2026-04-20 11:29 | -15.91406 | -173.29054 | 35939 ft | 478 kts | 232° |
| 2026-04-20 11:29 | -15.95361 | -173.34556 | 35937 ft | 477 kts | 232° |
| 2026-04-20 11:30 | -15.99341 | -173.40097 | 35937 ft | 477 kts | 232° |
| 2026-04-20 11:30 | -16.03317 | -173.45635 | 35939 ft | 478 kts | 232° |
| 2026-04-20 11:31 | -16.07276 | -173.51155 | 35940 ft | 479 kts | 232° |
| 2026-04-20 11:31 | -16.11261 | -173.56714 | 35941 ft | 479 kts | 233° |
| 2026-04-20 11:32 | -16.15232 | -173.62259 | 35937 ft | 477 kts | 233° |
| 2026-04-20 11:32 | -16.19192 | -173.67792 | 35935 ft | 476 kts | 233° |
| 2026-04-20 11:33 | -16.23136 | -173.73308 | 35935 ft | 477 kts | 233° |
| 2026-04-20 11:33 | -16.27091 | -173.78842 | 35937 ft | 476 kts | 233° |
| 2026-04-20 11:34 | -16.31033 | -173.84363 | 35940 ft | 474 kts | 233° |
| 2026-04-20 11:34 | -16.34969 | -173.89880 | 35940 ft | 475 kts | 233° |
| 2026-04-20 11:35 | -16.38905 | -173.95400 | 35936 ft | 475 kts | 233° |
| 2026-04-20 11:35 | -16.42839 | -174.00923 | 35940 ft | 475 kts | 233° |
| 2026-04-20 11:36 | -16.46774 | -174.06452 | 35945 ft | 475 kts | 233° |
| 2026-04-20 11:36 | -16.50708 | -174.11983 | 35945 ft | 475 kts | 233° |
| 2026-04-20 11:37 | -16.54941 | -174.17263 | 35936 ft | 475 kts | 229° |
| 2026-04-20 11:37 | -16.61435 | -174.25084 | 35942 ft | 476 kts | 229° |
| 2026-04-20 11:38 | -16.65767 | -174.30299 | 35944 ft | 474 kts | 229° |
| 2026-04-20 11:38 | -16.70071 | -174.35488 | 35941 ft | 472 kts | 229° |
| 2026-04-20 11:39 | -16.74346 | -174.40643 | 35942 ft | 473 kts | 229° |
| 2026-04-20 11:39 | -16.78645 | -174.45833 | 35943 ft | 474 kts | 229° |
| 2026-04-20 11:40 | -16.82960 | -174.51046 | 35944 ft | 474 kts | 229° |
| 2026-04-20 11:40 | -16.87281 | -174.56270 | 35946 ft | 475 kts | 229° |
| 2026-04-20 11:41 | -16.91608 | -174.61505 | 35947 ft | 476 kts | 229° |
| 2026-04-20 11:41 | -16.95943 | -174.66754 | 35949 ft | 476 kts | 229° |
| 2026-04-20 11:42 | -17.00233 | -174.71951 | 35946 ft | 470 kts | 230° |